Flight Track Log - Related Links

Times and Time Zones

All times are in EST time to prevent confusion due to time zone crossing. See the AFL150 flight status page for this flight to view local times or setup timezone preferences in your user account.

Time Position Orientation Groundspeed Altitude Reporting Facility
EST Latitude Longitude Course Direction KTS MPH feet Rate Location/Type
Sun 04:42:53 AM 55.9620 37.3550 254° West 178 205 2,400  Level FlightAware ADS-B
Sun 04:43:33 AM 55.9540 37.2980 256° West 182 209 3,700 1,923 Climbing FlightAware ADS-B
Sun 04:44:11 AM 55.9460 37.2410 256° West 193 222 4,900 1,397 Climbing FlightAware ADS-B
Sun 04:44:46 AM 55.9490 37.1800 275° West 233 268 5,400 1,286 Climbing FlightAware ADS-B
Sun 04:45:21 AM 55.9560 37.1080 280° West 262 302 6,400 1,938 Climbing FlightAware ADS-B
Sun 04:45:51 AM 55.9640 37.0430 282° West 273 314 7,500 2,417 Climbing FlightAware ADS-B
Sun 04:46:33 AM 55.9760 36.9530 283° West 280 322 9,300 2,597 Climbing FlightAware ADS-B
Sun 04:46:58 AM 55.9830 36.8950 282° West 279 321 10,400 2,057 Climbing FlightAware ADS-B
Sun 04:47:43 AM 55.9950 36.7910 282° West 304 350 11,700 1,440 Climbing FlightAware ADS-B
Sun 04:48:13 AM 56.0040 36.7160 282° West 333 383 12,200 1,091 Climbing FlightAware ADS-B
Sun 04:48:38 AM 56.0130 36.6450 283° West 356 410 12,700 1,500 Climbing FlightAware ADS-B
Sun 04:49:13 AM 56.0250 36.5430 282° West 371 427 13,700 1,895 Climbing FlightAware ADS-B
Sun 04:49:54 AM 56.0400 36.4180 282° West 384 442 15,100 2,074 Climbing FlightAware ADS-B
Sun 04:50:34 AM 56.0550 36.2940 282° West 394 453 16,500 2,100 Climbing FlightAware ADS-B
Sun 04:51:14 AM 56.0700 36.1640 282° West 403 464 17,900 2,025 Climbing FlightAware ADS-B
Sun 04:51:54 AM 56.0860 36.0310 282° West 410 472 19,200 1,875 Climbing FlightAware ADS-B
Sun 04:52:34 AM 56.1020 35.8940 282° West 418 481 20,400 1,775 Climbing FlightAware ADS-B
Sun 04:53:05 AM 56.1140 35.7890 282° West 423 487 21,300 1,737 Climbing FlightAware ADS-B
Sun 04:53:50 AM 56.1300 35.6400 281° West 429 494 22,600 1,780 Climbing FlightAware ADS-B
Sun 04:54:36 AM 56.1490 35.4720 282° West 434 499 24,000 1,780 Climbing FlightAware ADS-B
Sun 04:55:21 AM 56.1660 35.3180 281° West 438 504 25,300 1,696 Climbing FlightAware ADS-B
Sun 04:56:08 AM 56.1840 35.1540 281° West 437 503 26,600 1,852 Climbing FlightAware ADS-B
Sun 04:56:42 AM 56.1970 35.0310 281° West 431 496 27,800 1,917 Climbing FlightAware ADS-B
Sun 04:57:20 AM 56.2110 34.8970 281° West 427 491 28,900 1,537 Climbing FlightAware ADS-B
Sun 04:58:04 AM 56.2270 34.7440 281° West 426 490 29,900 846 Climbing FlightAware ADS-B
Sun 04:58:38 AM 56.2400 34.6240 281° West 428 493 30,000 85 Climbing FlightAware ADS-B
Sun 04:59:15 AM 56.2530 34.4950 280° West 426 490 30,000  Level FlightAware ADS-B
Sun 04:59:45 AM 56.2640 34.3910 281° West 426 490 30,000  Level FlightAware ADS-B
Sun 05:00:25 AM 56.2770 34.2590 280° West 424 488 30,000  Level FlightAware ADS-B
Sun 05:01:05 AM 56.2910 34.1160 280° West 424 488 30,000  Level FlightAware ADS-B
Sun 05:01:40 AM 56.3030 33.9920 280° West 424 488 30,000  Level FlightAware ADS-B
Sun 05:02:21 AM 56.3170 33.8530 280° West 425 489 30,000  Level FlightAware ADS-B
Sun 05:02:55 AM 56.3290 33.7320 280° West 426 490 30,000  Level FlightAware ADS-B
Sun 05:03:30 AM 56.3400 33.6080 279° West 426 490 30,000  Level FlightAware ADS-B
Sun 05:04:05 AM 56.3520 33.4900 280° West 426 490 30,000  Level FlightAware ADS-B
Sun 05:04:35 AM 56.3620 33.3840 280° West 426 490 30,000  Level FlightAware ADS-B
Sun 05:05:21 AM 56.3760 33.2250 279° West 426 490 30,000  Level FlightAware ADS-B
Sun 05:05:55 AM 56.3870 33.1010 279° West 427 491 30,000  Level FlightAware ADS-B
Sun 05:06:35 AM 56.4000 32.9620 280° West 427 491 30,000  Level FlightAware ADS-B
Sun 05:07:15 AM 56.4120 32.8210 279° West 428 493 30,000  Level FlightAware ADS-B
Sun 05:07:51 AM 56.4230 32.6970 279° West 429 494 30,000  Level FlightAware ADS-B
Sun 05:08:35 AM 56.4370 32.5400 279° West 430 495 30,000  Level FlightAware ADS-B
Sun 05:09:05 AM 56.4450 32.4470 279° West 430 495 30,000  Level FlightAware ADS-B
Sun 05:10:07 AM 56.4590 32.2590 278° West 430 495 30,000  Level FlightAware ADS-B
Sun 05:10:43 AM 56.4680 32.1500 279° West 430 495 30,000  Level FlightAware ADS-B
Sun 05:11:28 AM 56.4780 32.0130 278° West 430 495 30,000  Level FlightAware ADS-B
Sun 05:12:04 AM 56.4870 31.9040 279° West 430 495 30,000  Level FlightAware ADS-B
Sun 05:12:40 AM 56.4950 31.7950 278° West 430 495 30,000  Level FlightAware ADS-B
Sun 05:13:16 AM 56.5040 31.6860 279° West 430 495 30,000  Level FlightAware ADS-B
Sun 05:13:52 AM 56.5120 31.5760 278° West 430 495 30,000  Level FlightAware ADS-B
Sun 05:15:46 AM 56.5420 31.2300 279° West 367 422 30,000  Level FlightAware ADS-B
Sun 05:16:41 AM 56.6520 30.8620 299° West 436 502 30,000  Level FlightAware ADS-B
Sun 05:17:16 AM 56.6960 30.7670 310° West 436 502 30,000  Level FlightAware ADS-B
Sun 05:17:56 AM 56.7470 30.6410 306° West 436 502 30,000  Level FlightAware ADS-B
Sun 05:18:41 AM 56.7970 30.5080 305° West 437 503 30,000  Level FlightAware ADS-B
Sun 05:19:11 AM 56.8290 30.4220 304° West 436 502 30,000  Level FlightAware ADS-B
Sun 05:20:10 AM 56.8460 30.3750 303° West 436 502 30,000  Level FlightAware ADS-B
Sun 05:21:21 AM 56.9760 30.0210 304° West 434 499 30,000  Level FlightAware ADS-B
Sun 05:21:56 AM 57.0160 29.9100 304° West 432 497 30,000  Level FlightAware ADS-B
Sun 05:22:21 AM 57.0400 29.8440 304° West 432 497 30,000  Level FlightAware ADS-B
Sun 05:23:07 AM 57.0900 29.7070 304° West 432 497 30,000  Level FlightAware ADS-B
Sun 05:23:57 AM 57.1450 29.5520 303° West 431 496 30,000  Level FlightAware ADS-B
Sun 05:24:41 AM 57.1930 29.4160 303° West 430 495 30,000  Level FlightAware ADS-B
Sun 05:25:21 AM 57.2380 29.2890 303° West 430 495 30,000  Level FlightAware ADS-B
Sun 05:25:56 AM 57.2780 29.1770 303° West 430 495 30,000  Level FlightAware ADS-B
Sun 05:26:31 AM 57.3140 29.0740 303° West 431 496 30,000  Level FlightAware ADS-B
Sun 05:27:06 AM 57.3540 28.9610 303° West 431 496 30,000  Level FlightAware ADS-B
Sun 05:27:31 AM 57.3810 28.8830 303° West 431 496 30,000  Level FlightAware ADS-B
Sun 05:28:43 AM 57.4590 28.6570 303° West 432 497 30,000  Level FlightAware ADS-B
Sun 05:29:24 AM 57.5030 28.5290 303° West 431 496 30,000  Level FlightAware ADS-B
Sun 05:30:01 AM 57.5430 28.4140 303° West 431 496 30,000  Level FlightAware ADS-B
Sun 05:30:57 AM 57.6030 28.2370 302° West 430 495 30,000  Level FlightAware ADS-B
Sun 05:31:32 AM 57.6400 28.1280 302° West 430 495 30,000  Level FlightAware ADS-B
Sun 05:32:05 AM 57.6740 28.0260 302° West 430 495 30,000  Level FlightAware ADS-B
Sun 05:32:33 AM 57.7040 27.9370 302° West 430 495 30,000  Level FlightAware ADS-B
Sun 05:33:18 AM 57.7510 27.7960 302° West 429 494 30,000  Level FlightAware ADS-B
Sun 05:33:53 AM 57.7870 27.6870 302° West 429 494 30,000  Level FlightAware ADS-B
Sun 05:34:34 AM 57.8290 27.5590 302° West 427 491 30,000  Level FlightAware ADS-B
Sun 05:35:13 AM 57.8580 27.4250 292° West 424 488 30,000  Level FlightAware ADS-B
Sun 05:35:54 AM 57.8860 27.2810 290° West 424 488 30,000  Level FlightAware ADS-B
Sun 05:36:33 AM 57.9120 27.1520 291° West 424 488 30,000  Level FlightAware ADS-B
Sun 05:37:05 AM 57.9350 27.0390 291° West 424 488 30,000  Level FlightAware ADS-B
Sun 05:37:46 AM 57.9640 26.8960 291° West 424 488 30,000  Level FlightAware ADS-B
Sun 05:38:33 AM 57.9960 26.7350 291° West 425 489 30,000  Level FlightAware ADS-B
Sun 05:39:19 AM 58.0280 26.5740 291° West 426 490 30,000  Level FlightAware ADS-B
Sun 05:39:58 AM 58.0540 26.4400 290° West 425 489 30,000  Level FlightAware ADS-B
Sun 05:40:35 AM 58.0790 26.3110 290° West 425 489 30,000  Level FlightAware ADS-B
Sun 05:41:11 AM 58.1040 26.1830 290° West 426 490 30,000  Level FlightAware ADS-B
Sun 05:41:43 AM 58.1240 26.0750 289° West 427 491 30,000  Level FlightAware ADS-B
Sun 05:42:24 AM 58.1520 25.9310 290° West 427 491 30,000  Level FlightAware ADS-B
Sun 05:43:09 AM 58.1820 25.7700 290° West 427 491 30,000  Level FlightAware ADS-B
Sun 05:43:53 AM 58.2110 25.6160 290° West 427 491 30,000  Level FlightAware ADS-B
Sun 05:44:41 AM 58.2420 25.4490 289° West 427 491 30,000  Level FlightAware ADS-B
Sun 05:45:21 AM 58.2680 25.3060 289° West 426 490 30,000  Level FlightAware ADS-B
Sun 05:46:18 AM 58.3050 25.1050 289° West 424 488 30,000  Level FlightAware ADS-B
Sun 05:46:57 AM 58.3290 24.9670 288° West 423 487 30,000  Level FlightAware ADS-B
Sun 05:47:34 AM 58.3530 24.8390 290° West 421 484 30,000  Level FlightAware ADS-B
Sun 05:48:13 AM 58.3770 24.7010 288° West 419 482 30,000  Level FlightAware ADS-B
Sun 05:49:14 AM 58.4140 24.4900 289° West 418 481 30,000  Level FlightAware ADS-B
Sun 05:49:44 AM 58.4320 24.3840 288° West 416 479 30,000  Level FlightAware ADS-B
Sun 05:50:22 AM 58.4510 24.2520 285° West 415 478 30,000  Level FlightAware ADS-B
Sun 05:51:02 AM 58.4730 24.1080 286° West 414 476 30,000  Level FlightAware ADS-B
Sun 05:51:37 AM 58.4910 23.9870 286° West 414 476 30,000  Level FlightAware ADS-B
Sun 05:52:29 AM 58.5180 23.8060 286° West 414 476 30,000  Level FlightAware ADS-B
Sun 05:53:10 AM 58.5400 23.6580 286° West 414 476 30,000  Level FlightAware ADS-B
Sun 05:53:43 AM 58.5560 23.5440 285° West 414 476 30,000  Level FlightAware ADS-B
Sun 05:54:43 AM 58.5870 23.3330 286° West 414 476 30,000  Level FlightAware ADS-B
Sun 05:55:59 AM 58.6250 23.0630 285° West 414 476 30,000  Level FlightAware ADS-B
Sun 05:56:34 AM 58.6430 22.9400 286° West 414 476 30,000  Level FlightAware ADS-B
Sun 05:57:11 AM 58.6610 22.8080 285° West 413 475 30,000  Level FlightAware ADS-B
Sun 05:57:50 AM 58.6800 22.6690 285° West 413 475 30,000  Level FlightAware ADS-B
Sun 05:59:04 AM 58.7150 22.4110 285° West 414 476 30,000  Level FlightAware ADS-B
Sun 05:59:36 AM 58.7310 22.2960 285° West 414 476 30,000  Level FlightAware ADS-B
Sun 06:00:17 AM 58.7510 22.1460 284° West 414 476 30,000  Level FlightAware ADS-B
Sun 06:00:50 AM 58.7660 22.0300 284° West 415 478 30,000  Level FlightAware ADS-B
Sun 06:01:40 AM 58.7890 21.8560 284° West 416 479 30,000  Level FlightAware ADS-B
Sun 06:02:26 AM 58.8146 21.6873 286° West 417 480 30,000  Level FlightAware ADS-B
Sun 06:03:02 AM 58.8371 21.5586 289° West 422 486 30,000  Level FlightAware ADS-B
Sun 06:03:39 AM 58.8595 21.4259 288° West 422 486 30,000  Level FlightAware ADS-B
Sun 06:04:32 AM 58.8904 21.2354 287° West 422 486 30,000  Level FlightAware ADS-B
Sun 06:05:10 AM 58.9124 21.0978 287° West 420 483 30,000  Level FlightAware ADS-B
Sun 06:05:42 AM 58.9308 20.9828 287° West 421 484 30,000  Level FlightAware ADS-B
Sun 06:06:12 AM 58.9480 20.8757 287° West 424 488 30,000  Level FlightAware ADS-B
Sun 06:06:43 AM 58.9662 20.7644 288° West 425 489 30,000  Level FlightAware ADS-B
Sun 06:07:13 AM 58.9838 20.6554 287° West 425 489 30,000  Level FlightAware ADS-B
Sun 06:07:43 AM 59.0011 20.5480 287° West 423 487 30,000  Level FlightAware ADS-B
Sun 06:08:14 AM 59.0194 20.4332 287° West 424 488 30,000  Level FlightAware ADS-B
Sun 06:08:53 AM 59.0419 20.2909 287° West 424 488 30,000  Level FlightAware ADS-B
Sun 06:09:23 AM 59.0592 20.1813 287° West 423 487 30,000  Level FlightAware ADS-B
Sun 06:09:53 AM 59.0760 20.0736 287° West 424 488 30,000  Level FlightAware ADS-B
Sun 06:10:23 AM 59.0931 19.9628 287° West 424 488 30,000  Level FlightAware ADS-B
Sun 06:10:53 AM 59.1098 19.8548 287° West 425 489 30,000  Level FlightAware ADS-B
Sun 06:11:34 AM 59.1328 19.7046 287° West 426 490 30,000  Level FlightAware ADS-B
Sun 06:12:13 AM 59.1547 19.5596 286° West 425 489 30,000  Level FlightAware ADS-B
Sun 06:12:44 AM 59.1719 19.4453 286° West 426 490 30,000  Level FlightAware ADS-B
Sun 06:13:23 AM 59.1935 19.3011 286° West 428 493 30,000  Level FlightAware ADS-B
Sun 06:13:54 AM 59.2105 19.1863 286° West 428 493 30,000  Level FlightAware ADS-B
Sun 06:14:33 AM 59.2320 19.0402 286° West 431 496 30,000  Level FlightAware ADS-B
Sun 06:15:04 AM 59.2485 18.9269 286° West 431 496 30,000  Level FlightAware ADS-B
Sun 06:15:43 AM 59.2699 18.7788 286° West 432 497 30,000  Level FlightAware ADS-B
Sun 06:16:14 AM 59.2864 18.6647 286° West 433 498 30,000  Level FlightAware ADS-B
Sun 06:16:53 AM 59.3074 18.5166 286° West 432 497 30,000  Level FlightAware ADS-B
Sun 06:17:24 AM 59.3237 18.4007 285° West 432 497 30,000  Level FlightAware ADS-B
Sun 06:17:54 AM 59.3396 18.2875 285° West 433 498 30,000  Level FlightAware ADS-B
Sun 06:18:33 AM 59.3603 18.1384 285° West 432 497 30,000  Level FlightAware ADS-B
Sun 06:19:04 AM 59.3762 18.0232 285° West 433 498 30,000  Level FlightAware ADS-B
Sun 06:19:34 AM 59.3915 17.9118 285° West 433 498 30,000  Level FlightAware ADS-B
Sun 06:20:13 AM 59.4120 17.7601 285° West 434 499 30,000  Level FlightAware ADS-B
Sun 06:20:43 AM 59.4271 17.6480 285° West 435 501 30,000  Level FlightAware ADS-B
Sun 06:21:22 AM 59.4471 17.4980 285° West 435 501 30,000  Level FlightAware ADS-B
Sun 06:21:53 AM 59.4624 17.3825 285° West 435 501 30,000  Level FlightAware ADS-B
Sun 06:22:34 AM 59.4832 17.2238 285° West 435 501 30,000  Level FlightAware ADS-B
Sun 06:23:14 AM 59.5033 17.0696 284° West 435 501 30,000  Level FlightAware ADS-B
Sun 06:23:44 AM 59.5182 16.9529 284° West 436 502 30,000  Level FlightAware ADS-B
Sun 06:24:14 AM 59.5328 16.8384 284° West 437 503 30,000  Level FlightAware ADS-B
Sun 06:24:45 AM 59.5479 16.7194 284° West 437 503 30,000  Level FlightAware ADS-B
Sun 06:25:23 AM 59.5664 16.5719 284° West 439 505 30,000  Level FlightAware ADS-B
Sun 06:26:14 AM 59.5911 16.3723 284° West 441 507 30,000  Level FlightAware ADS-B
Sun 06:26:47 AM 59.6070 16.2450 284° West 442 509 30,000  Level FlightAware ADS-B
Sun 06:27:25 AM 59.6250 16.0930 283° West 445 512 30,000  Level FlightAware ADS-B
Sun 06:28:03 AM 59.6430 15.9460 284° West 447 514 30,000  Level FlightAware ADS-B
Sun 06:28:39 AM 59.6600 15.8010 283° West 446 513 30,000  Level FlightAware ADS-B
Sun 06:29:27 AM 59.6820 15.6110 283° West 445 512 30,000  Level FlightAware ADS-B
Sun 06:30:06 AM 59.7000 15.4580 283° West 445 512 30,000  Level FlightAware ADS-B
Sun 06:30:47 AM 59.7190 15.2940 283° West 444 511 30,000  Level FlightAware ADS-B
Sun 06:31:10 AM 59.7290 15.2020 282° West 443 510 30,000  Level FlightAware ADS-B
Sun 06:31:50 AM 59.7470 15.0470 283° West 442 509 30,000  Level FlightAware ADS-B
Sun 06:32:31 AM 59.7650 14.8840 282° West 442 509 30,000  Level FlightAware ADS-B
Sun 06:33:10 AM 59.7820 14.7320 283° West 441 507 30,000  Level FlightAware ADS-B
Sun 06:33:47 AM 59.7980 14.5850 282° West 439 505 30,000  Level FlightAware ADS-B
Sun 06:34:23 AM 59.8130 14.4400 282° West 439 505 30,000  Level FlightAware ADS-B
Sun 06:35:22 AM 59.8380 14.2080 282° West 439 505 30,000  Level FlightAware ADS-B
Sun 06:35:59 AM 59.8530 14.0640 282° West 440 506 30,000  Level FlightAware ADS-B
Sun 06:36:55 AM 59.8750 13.8450 281° West 440 506 30,000  Level FlightAware ADS-B
Sun 06:37:28 AM 59.8890 13.7140 282° West 441 507 30,000  Level FlightAware ADS-B
Sun 06:38:07 AM 59.9040 13.5560 281° West 443 510 30,000  Level FlightAware ADS-B
Sun 06:39:08 AM 59.9320 13.3140 283° West 454 522 30,000  Level FlightAware ADS-B
Sun 06:39:43 AM 59.9540 13.1740 287° West 454 522 30,000  Level FlightAware ADS-B
Sun 06:40:29 AM 59.9810 12.9890 286° West 454 522 30,000  Level FlightAware ADS-B
Sun 06:41:12 AM 60.0060 12.8150 286° West 457 526 30,000  Level FlightAware ADS-B
Sun 06:41:57 AM 60.0310 12.6310 285° West 461 531 30,000  Level FlightAware ADS-B
Sun 06:42:32 AM 60.0520 12.4890 287° West 464 534 30,000  Level FlightAware ADS-B
Sun 06:43:37 AM 60.0910 12.2190 286° West 469 540 30,000  Level FlightAware ADS-B
Sun 06:44:15 AM 60.1130 12.0620 286° West 471 542 30,000  Level FlightAware ADS-B
Sun 06:45:02 AM 60.1410 11.8630 286° West 474 545 30,000  Level FlightAware ADS-B
Sun 06:45:41 AM 60.1630 11.7070 286° West 475 547 30,000  Level FlightAware ADS-B
Sun 06:46:18 AM 60.1840 11.5540 285° West 476 548 30,000  Level FlightAware ADS-B
Sun 06:47:20 AM 60.2190 11.2940 285° West 475 547 30,000  Level FlightAware ADS-B
Sun 06:47:59 AM 60.2430 11.1160 285° West 477 549 30,000  Level FlightAware ADS-B
Sun 06:48:34 AM 60.2620 10.9690 285° West 478 550 30,000  Level FlightAware ADS-B
Sun 06:49:14 AM 60.2840 10.7970 285° West 477 549 30,000  Level FlightAware ADS-B
Sun 06:49:55 AM 60.3080 10.6160 285° West 478 550 30,000  Level FlightAware ADS-B
Sun 06:50:38 AM 60.3300 10.4390 284° West 478 550 30,000  Level FlightAware ADS-B
Sun 06:51:12 AM 60.3500 10.2830 285° West 478 550 30,000  Level FlightAware ADS-B
Sun 06:52:15 AM 60.3840 10.0130 284° West 479 551 30,000  Level FlightAware ADS-B
Sun 06:52:56 AM 60.4060 9.8300 284° West 478 550 30,000  Level FlightAware ADS-B
Sun 06:53:31 AM 60.4240 9.6820 284° West 480 552 30,000  Level FlightAware ADS-B
Sun 06:54:12 AM 60.4440 9.5110 283° West 481 554 30,000  Level FlightAware ADS-B
Sun 06:54:47 AM 60.4630 9.3550 284° West 482 555 30,000  Level FlightAware ADS-B
Sun 06:55:23 AM 60.4820 9.1950 284° West 482 555 30,000  Level FlightAware ADS-B
Sun 06:55:56 AM 60.4980 9.0510 283° West 482 555 30,000  Level FlightAware ADS-B
Sun 06:56:31 AM 60.5160 8.8960 283° West 482 555 30,000  Level FlightAware ADS-B
Sun 06:57:06 AM 60.5330 8.7440 283° West 481 554 30,000  Level FlightAware ADS-B
Sun 06:57:53 AM 60.5570 8.5360 283° West 480 552 30,000  Level FlightAware ADS-B
Sun 06:58:26 AM 60.5730 8.3880 282° West 480 552 30,000  Level FlightAware ADS-B
Sun 06:59:06 AM 60.5920 8.2130 283° West 481 554 30,000  Level FlightAware ADS-B
Sun 06:59:36 AM 60.6060 8.0850 283° West 480 552 30,000  Level FlightAware ADS-B
Sun 07:00:21 AM 60.6270 7.8830 282° West 482 555 30,000  Level FlightAware ADS-B
Sun 07:01:01 AM 60.6460 7.7040 282° West 482 555 30,000  Level FlightAware ADS-B
Sun 07:02:09 AM 60.6773 7.4008 282° West 482 555 30,000  Level FlightAware ADS-B
Sun 07:02:39 AM 60.6908 7.2677 282° West 481 554 30,000  Level FlightAware ADS-B
Sun 07:03:18 AM 60.7083 7.0932 282° West 481 554 30,000  Level FlightAware ADS-B
Sun 07:03:48 AM 60.7213 6.9593 281° West 482 555 30,000  Level FlightAware ADS-B
Sun 07:04:18 AM 60.7343 6.8263 281° West 484 557 30,000  Level FlightAware ADS-B
Sun 07:04:48 AM 60.7474 6.6918 281° West 485 558 30,000  Level FlightAware ADS-B
Sun 07:05:19 AM 60.7605 6.5537 281° West 484 557 30,000  Level FlightAware ADS-B
Sun 07:05:57 AM 60.7767 6.3823 281° West 483 556 30,000  Level FlightAware ADS-B
Sun 07:06:27 AM 60.7891 6.2491 281° West 482 555 30,000  Level FlightAware ADS-B
Sun 07:07:08 AM 60.8059 6.0648 281° West 481 554 30,000  Level FlightAware ADS-B
Sun 07:07:38 AM 60.8180 5.9303 281° West 480 552 30,000  Level FlightAware ADS-B
Sun 07:08:18 AM 60.8341 5.7505 280° West 478 550 30,000  Level FlightAware ADS-B
Sun 07:09:07 AM 60.8530 5.5350 280° West 476 548 30,000  Level FlightAware ADS-B
Sun 07:09:47 AM 60.8680 5.3600 280° West 474 545 30,000  Level FlightAware ADS-B
Sun 07:10:31 AM 60.8850 5.1660 280° West 474 545 30,000  Level FlightAware ADS-B
Sun 07:11:07 AM 60.8980 5.0050 279° West 475 547 30,000  Level FlightAware ADS-B
Sun 07:11:40 AM 60.9090 4.8650 279° West 476 548 30,000  Level FlightAware ADS-B
Sun 07:12:29 AM 60.9270 4.6460 280° West 477 549 30,000  Level FlightAware ADS-B
Sun 07:13:04 AM 60.9390 4.4900 279° West 478 550 30,000  Level FlightAware ADS-B
Sun 07:13:47 AM 60.9550 4.2900 279° West 478 550 30,000  Level FlightAware ADS-B
Sun 07:14:16 AM 60.9650 4.1630 279° West 478 550 30,000  Level FlightAware ADS-B
Sun 07:14:48 AM 60.9750 4.0180 278° West 477 549 30,000  Level FlightAware ADS-B
Sun 07:15:20 AM 60.9860 3.8760 279° West 477 549 30,000  Level FlightAware ADS-B
Sun 07:15:56 AM 60.9980 3.7170 279° West 477 549 30,000  Level FlightAware ADS-B
Sun 07:16:34 AM 61.0100 3.5450 278° West 476 548 30,000  Level FlightAware ADS-B
Sun 07:17:20 AM 61.0250 3.3400 279° West 475 547 30,000  Level FlightAware ADS-B
Sun 07:18:02 AM 61.0380 3.1470 278° West 475 547 30,000  Level FlightAware ADS-B
Sun 07:18:40 AM 61.0490 2.9810 278° West 475 547 30,000  Level FlightAware ADS-B
Sun 07:19:19 AM 61.0610 2.8050 278° West 474 545 30,000  Level FlightAware ADS-B
Sun 07:20:00 AM 61.0730 2.6200 278° West 473 544 30,000  Level FlightAware ADS-B
Sun 07:20:44 AM 61.0850 2.4270 277° West 472 543 30,000  Level FlightAware ADS-B
Sun 07:21:18 AM 61.0940 2.2750 277° West 471 542 30,000  Level FlightAware ADS-B
Sun 07:22:10 AM 61.1080 2.0430 277° West 470 541 30,000  Level FlightAware ADS-B
Sun 07:22:54 AM 61.1200 1.8490 277° West 470 541 30,000  Level FlightAware ADS-B
Sun 07:23:36 AM 61.1310 1.6590 277° West 470 541 30,000  Level FlightAware ADS-B
Sun 07:24:22 AM 61.1420 1.4550 276° West 470 541 30,000  Level FlightAware ADS-B
Sun 07:25:10 AM 61.1540 1.2420 277° West 468 539 30,000  Level FlightAware ADS-B
Sun 07:25:40 AM 61.1610 1.1080 276° West 467 537 30,000  Level FlightAware ADS-B
Sun 07:26:11 AM 61.1680 0.9720 276° West 467 537 30,000  Level FlightAware ADS-B
Sun 07:26:50 AM 61.1770 0.7980 276° West 467 537 30,000  Level FlightAware ADS-B
Sun 07:27:25 AM 61.1840 0.6440 275° West 467 537 30,000  Level FlightAware ADS-B
Sun 07:28:09 AM 61.1940 0.4450 276° West 467 537 30,000  Level FlightAware ADS-B
Sun 07:28:44 AM 61.2010 0.2920 275° West 467 537 30,000  Level FlightAware ADS-B
Sun 07:29:25 AM 61.2090 0.1100 275° West 467 537 30,000  Level FlightAware ADS-B
Sun 07:30:09 AM 61.2330 -0.0800 285° West 464 534 30,000  Level FlightAware ADS-B
Sun 07:30:39 AM 61.2590 -0.2030 294° West 464 534 30,000  Level FlightAware ADS-B
Sun 07:31:14 AM 61.2900 -0.3380 296° West 463 533 30,000  Level FlightAware ADS-B
Sun 07:32:03 AM 61.3360 -0.5410 295° West 461 531 30,000  Level FlightAware ADS-B
Sun 07:33:05 AM 61.3900 -0.7870 295° West 459 528 30,000  Level FlightAware ADS-B
Sun 07:33:48 AM 61.4260 -0.9530 294° West 459 528 30,000  Level FlightAware ADS-B
Sun 07:35:44 AM 61.5290 -1.4310 294° West 461 531 30,000  Level FlightAware ADS-B
Sun 07:36:34 AM 61.5710 -1.6310 294° West 466 536 30,000  Level FlightAware ADS-B
Sun 07:37:38 AM 61.6260 -1.8950 294° West 470 541 30,000  Level FlightAware ADS-B
Sun 07:38:39 AM 61.6740 -2.1280 294° West 471 542 30,000 321 Level FlightAware ADS-B
Sun 07:40:45 AM 61.7860 -2.6780 273° West 474 545 31,000 355 Climbing FlightAware ADS-B
Sun 07:41:00 AM 61.6868 -2.6776 273° West  Level Estimated
Sun 07:41:28 AM 61.8240 -2.8700 293° West 470 541 31,000  Level FlightAware ADS-B
Sun 07:42:07 AM 61.8510 -3.0120 292° West 470 541 31,000  Level FlightAware ADS-B
Sun 07:42:44 AM 61.8770 -3.1470 292° West 470 541 31,000  Level FlightAware ADS-B
Sun 07:43:20 AM 61.9020 -3.2780 292° West 470 541 31,000  Level FlightAware ADS-B
Sun 07:44:08 AM 61.9350 -3.4520 292° West 470 541 31,000  Level FlightAware ADS-B
Sun 07:44:58 AM 61.9690 -3.6350 292° West 470 541 31,000  Level FlightAware ADS-B
Sun 07:45:46 AM 62.0030 -3.8100 293° West 470 541 31,000  Level FlightAware ADS-B
Sun 07:46:17 AM 62.0570 -4.0840 293° West 463 533 31,000  Level FlightAware ADS-B
Sun 07:47:02 AM 62.0870 -4.2510 291° West 462 532 31,000  Level FlightAware ADS-B
Sun 07:47:38 AM 62.1110 -4.3820 291° West 462 532 31,000  Level FlightAware ADS-B
Sun 07:48:02 AM 62.1260 -4.4690 290° West 462 532 31,000  Level FlightAware ADS-B
Sun 07:48:38 AM 62.1500 -4.5990 292° West 462 532 31,000  Level FlightAware ADS-B
Sun 07:49:38 AM 62.1890 -4.8170 291° West 462 532 31,000  Level FlightAware ADS-B
Sun 07:50:15 AM 62.2130 -4.9520 291° West 462 532 31,000  Level FlightAware ADS-B
Sun 07:50:49 AM 62.2350 -5.0760 291° West 462 532 31,000  Level FlightAware ADS-B
Sun 07:51:45 AM 62.3050 -5.4670 291° West 461 531 31,000  Level FlightAware ADS-B
Sun 07:52:32 AM 62.3430 -5.6800 291° West 458 527 31,000  Level FlightAware ADS-B
Sun 07:53:11 AM 62.3710 -5.8490 290° West 457 526 31,000  Level FlightAware ADS-B
Sun 07:53:51 AM 62.3940 -5.9810 291° West 456 525 31,000  Level FlightAware ADS-B
Sun 07:54:27 AM 62.4160 -6.1120 290° West 456 525 31,000  Level FlightAware ADS-B
Sun 07:54:59 AM 62.4470 -6.3000 290° West 453 521 31,000  Level FlightAware ADS-B
Sun 07:56:08 AM 62.4950 -6.5940 290° West 449 517 31,000  Level FlightAware ADS-B
Sun 07:56:26 AM 62.5080 -6.6750 289° West 449 517 31,000  Level FlightAware ADS-B
Sun 07:57:27 AM 62.5440 -6.8960 290° West 449 517 31,000  Level FlightAware ADS-B
Sun 07:58:04 AM 62.5650 -7.0300 289° West 449 517 31,000  Level FlightAware ADS-B
Sun 07:58:50 AM 62.5910 -7.1970 289° West 449 517 31,000  Level FlightAware ADS-B
Sun 08:02:00 AM 62.5775 -7.9604 268° West  Level Estimated
Sun 08:03:00 AM 62.5724 -8.2014 267° West  Level Estimated
Sun 08:04:00 AM 62.5669 -8.4422 267° West  Level Estimated
Sun 08:05:00 AM 62.5610 -8.6830 267° West  Level Estimated
Sun 08:05:24 AM 62.6740 -7.7190 267° West 448 516 31,000  Level FlightAware ADS-B
Sun 08:06:00 AM 62.5546 -8.9236 267° West  Level Estimated
Sun 08:08:00 AM 62.6607 -8.3474 268° West  Level Estimated
Sun 08:09:00 AM 62.6548 -8.5889 267° West  Level Estimated
Sun 08:09:45 AM 63.0110 -10.0780 267° West 438 504 31,000  Level FlightAware ADS-B
Sun 08:10:00 AM 62.6485 -8.8303 267° West  Level Estimated
Sun 08:10:25 AM 63.0350 -10.2490 287° West 435 501 31,000  Level FlightAware ADS-B
Sun 08:10:57 AM 63.0530 -10.3840 286° West 434 499 31,000  Level FlightAware ADS-B
Sun 08:11:07 AM 63.0580 -10.4230 286° West 434 499 31,000  Level FlightAware ADS-B
Sun 08:12:03 AM 63.0900 -10.6590 287° West 431 496 31,000  Level FlightAware ADS-B
Sun 08:12:41 AM 63.1110 -10.8190 286° West 431 496 31,000  Level FlightAware ADS-B
Sun 08:13:13 AM 63.1300 -10.9560 287° West 430 495 31,000  Level FlightAware ADS-B
Sun 08:13:53 AM 63.1510 -11.1220 286° West 428 493 31,000  Level FlightAware ADS-B
Sun 08:14:25 AM 63.1690 -11.2570 287° West 427 491 31,000  Level FlightAware ADS-B
Sun 08:14:57 AM 63.1860 -11.3900 286° West 426 490 31,000  Level FlightAware ADS-B
Sun 08:15:33 AM 63.2050 -11.5420 286° West 426 490 31,000  Level FlightAware ADS-B
Sun 08:16:07 AM 63.2240 -11.6870 286° West 427 491 31,000  Level FlightAware ADS-B
Sun 08:17:07 AM 63.2550 -11.9390 285° West 427 491 31,000  Level FlightAware ADS-B
Sun 08:17:39 AM 63.2710 -12.0720 285° West 427 491 31,000  Level FlightAware ADS-B
Sun 08:18:35 AM 63.3000 -12.3080 285° West 426 490 31,000  Level FlightAware ADS-B
Sun 08:19:07 AM 63.3160 -12.4440 285° West 425 489 31,000  Level FlightAware ADS-B
Sun 08:19:43 AM 63.3350 -12.5970 286° West 424 488 31,000  Level FlightAware ADS-B
Sun 08:20:19 AM 63.3520 -12.7470 284° West 423 487 31,000  Level FlightAware ADS-B
Sun 08:21:15 AM 63.3790 -12.9820 284° West 421 484 31,000  Level FlightAware ADS-B
Sun 08:21:39 AM 63.3910 -13.0820 285° West 420 483 31,000  Level FlightAware ADS-B
Sun 08:22:09 AM 63.4050 -13.2080 284° West 418 481 31,000  Level FlightAware ADS-B
Sun 08:22:47 AM 63.4230 -13.3680 284° West 416 479 31,000  Level FlightAware ADS-B
Sun 08:23:19 AM 63.4380 -13.4990 284° West 415 478 31,000  Level FlightAware ADS-B
Sun 08:23:53 AM 63.4530 -13.6390 284° West 413 475 31,000  Level FlightAware ADS-B
Sun 08:24:25 AM 63.4680 -13.7710 284° West 412 474 31,000  Level FlightAware ADS-B
Sun 08:24:57 AM 63.4820 -13.9040 283° West 410 472 31,000  Level FlightAware ADS-B
Sun 08:25:33 AM 63.4980 -14.0500 284° West 408 470 31,000  Level FlightAware ADS-B
Sun 08:26:09 AM 63.5140 -14.1970 284° West 405 466 31,000  Level FlightAware ADS-B
Sun 08:27:09 AM 63.5390 -14.4410 283° West 401 461 31,000  Level FlightAware ADS-B
Sun 08:27:39 AM 63.5520 -14.5630 284° West 400 460 31,000  Level FlightAware ADS-B
Sun 08:28:09 AM 63.5640 -14.6820 283° West 399 459 31,000  Level FlightAware ADS-B
Sun 08:28:41 AM 63.5770 -14.8140 283° West 401 461 31,000  Level FlightAware ADS-B
Sun 08:29:21 AM 63.5940 -14.9750 283° West 401 461 31,000  Level FlightAware ADS-B
Sun 08:30:17 AM 63.6160 -15.2030 282° West 404 465 31,000  Level FlightAware ADS-B
Sun 08:31:19 AM 63.6410 -15.4560 283° West 407 468 31,000  Level FlightAware ADS-B
Sun 08:31:43 AM 63.6500 -15.5570 281° West 409 471 31,000  Level FlightAware ADS-B
Sun 08:32:19 AM 63.6640 -15.7050 282° West 411 473 31,000  Level FlightAware ADS-B
Sun 08:32:59 AM 63.6800 -15.8740 282° West 412 474 31,000  Level FlightAware ADS-B
Sun 08:33:59 AM 63.7030 -16.1260 282° West 415 478 31,000  Level FlightAware ADS-B
Sun 08:34:23 AM 63.7120 -16.2270 281° West 416 479 31,000  Level FlightAware ADS-B
Sun 08:34:51 AM 63.7230 -16.3490 282° West 416 479 31,000  Level FlightAware ADS-B
Sun 08:35:23 AM 63.7350 -16.4820 282° West 416 479 31,000  Level FlightAware ADS-B
Sun 08:35:55 AM 63.7470 -16.6190 281° West 416 479 31,000  Level FlightAware ADS-B
Sun 08:36:31 AM 63.7600 -16.7730 281° West 416 479 31,000  Level FlightAware ADS-B
Sun 08:37:03 AM 63.7720 -16.9040 282° West 415 478 31,000  Level FlightAware ADS-B
Sun 08:38:07 AM 63.7950 -17.1790 281° West 414 476 31,000  Level FlightAware ADS-B
Sun 08:38:51 AM 63.8100 -17.3670 280° West 412 474 31,000  Level FlightAware ADS-B
Sun 08:39:47 AM 63.8290 -17.5980 281° West 411 473 31,000  Level FlightAware ADS-B
Sun 08:40:47 AM 63.8490 -17.8500 280° West 411 473 31,000  Level FlightAware ADS-B
Sun 08:41:51 AM 63.8700 -18.1200 280° West 411 473 31,000  Level FlightAware ADS-B
Sun 08:43:05 AM 63.8940 -18.4400 280° West 410 472 31,000  Level FlightAware ADS-B
Sun 08:43:35 AM 63.9030 -18.5670 279° West 411 473 31,000  Level FlightAware ADS-B
Sun 08:44:07 AM 63.9130 -18.7030 280° West 411 473 31,000  Level FlightAware ADS-B
Sun 08:44:51 AM 63.9260 -18.8880 279° West 411 473 31,000  Level FlightAware ADS-B
Sun 08:45:27 AM 63.9370 -19.0450 279° West 412 474 31,000  Level FlightAware ADS-B
Sun 08:46:03 AM 63.9470 -19.1900 279° West 411 473 31,000  Level FlightAware ADS-B
Sun 08:46:37 AM 63.9570 -19.3430 279° West 412 474 31,000  Level FlightAware ADS-B
Sun 08:47:09 AM 63.9660 -19.4730 279° West 412 474 31,000  Level FlightAware ADS-B
Sun 08:47:49 AM 63.9770 -19.6450 278° West 413 475 31,000  Level FlightAware ADS-B
Sun 08:48:25 AM 63.9870 -19.7950 279° West 414 476 31,000  Level FlightAware ADS-B
Sun 08:49:04 AM 63.9980 -19.9620 279° West 413 475 31,000  Level FlightAware ADS-B
Sun 08:49:40 AM 64.0160 -20.1190 285° West 410 472 31,000  Level FlightAware ADS-B
Sun 08:50:13 AM 64.0340 -20.2520 287° West 410 472 31,000  Level FlightAware ADS-B
Sun 08:50:48 AM 64.0550 -20.4030 288° West 411 473 31,000  Level FlightAware ADS-B
Sun 08:51:24 AM 64.0750 -20.5500 287° West 412 474 31,000  Level FlightAware ADS-B
Sun 08:52:01 AM 64.0950 -20.7000 287° West 411 473 31,000  Level FlightAware ADS-B
Sun 08:52:36 AM 64.1150 -20.8480 287° West 411 473 31,000  Level FlightAware ADS-B
Sun 08:53:06 AM 64.1310 -20.9730 286° West 412 474 31,000  Level FlightAware ADS-B
Sun 08:53:41 AM 64.1490 -21.1140 286° West 412 474 31,000  Level FlightAware ADS-B
Sun 08:54:14 AM 64.1680 -21.2560 287° West 411 473 31,000  Level FlightAware ADS-B
Sun 08:54:55 AM 64.1890 -21.4230 286° West 412 474 31,000  Level FlightAware ADS-B
Sun 08:55:36 AM 64.2110 -21.5980 286° West 412 474 31,000  Level FlightAware ADS-B
Sun 08:56:15 AM 64.2310 -21.7580 286° West 413 475 31,000  Level FlightAware ADS-B
Sun 08:56:51 AM 64.2510 -21.9130 287° West 412 474 31,000  Level FlightAware ADS-B
Sun 08:58:00 AM 64.2860 -22.2080 285° West 413 475 31,000  Level FlightAware ADS-B
Sun 08:58:32 AM 64.3030 -22.3430 286° West 412 474 31,000  Level FlightAware ADS-B
Sun 08:59:53 AM 64.3440 -22.6870 286° West 414 476 31,000  Level FlightAware ADS-B
Sun 09:00:30 AM 64.3620 -22.8430 285° West 415 478 31,000  Level FlightAware ADS-B
Sun 09:01:10 AM 64.3810 -23.0130 285° West 414 476 31,000  Level FlightAware ADS-B
Sun 09:01:59 AM 64.4050 -23.2260 285° West 414 476 31,000  Level FlightAware ADS-B
Sun 09:02:44 AM 64.4270 -23.4160 285° West 415 478 31,000  Level FlightAware ADS-B
Sun 09:03:28 AM 64.4480 -23.6040 285° West 414 476 31,000  Level FlightAware ADS-B
Sun 09:04:09 AM 64.4670 -23.7840 284° West 415 478 31,000  Level FlightAware ADS-B
Sun 09:04:53 AM 64.4880 -23.9730 285° West 415 478 31,000  Level FlightAware ADS-B
Sun 09:05:33 AM 64.5060 -24.1460 284° West 414 476 31,000  Level FlightAware ADS-B
Sun 09:06:13 AM 64.5240 -24.3160 284° West 414 476 31,000  Level FlightAware ADS-B
Sun 09:06:54 AM 64.5420 -24.4910 284° West 415 478 31,000  Level FlightAware ADS-B
Sun 09:07:37 AM 64.5620 -24.6780 284° West 414 476 31,000  Level FlightAware ADS-B
Sun 09:08:17 AM 64.5790 -24.8520 283° West 415 478 31,000  Level FlightAware ADS-B
Sun 09:09:12 AM 64.6030 -25.0880 283° West 415 478 31,000  Level FlightAware ADS-B
Sun 09:09:47 AM 64.6180 -25.2390 283° West 415 478 31,000  Level FlightAware ADS-B
Sun 09:10:28 AM 64.6350 -25.4160 283° West 416 479 31,000  Level FlightAware ADS-B
Sun 09:11:09 AM 64.6520 -25.5970 282° West 416 479 31,000  Level FlightAware ADS-B
Sun 09:11:54 AM 64.6710 -25.7970 283° West 416 479 31,000  Level FlightAware ADS-B
Sun 09:12:42 AM 64.6910 -26.0080 283° West 416 479 31,000  Level FlightAware ADS-B
Sun 09:13:27 AM 64.7080 -26.2040 282° West 415 478 31,000  Level FlightAware ADS-B
Sun 09:14:15 AM 64.7270 -26.4140 282° West 416 479 31,000  Level FlightAware ADS-B
Sun 09:15:11 AM 64.7490 -26.6560 282° West 417 480 31,000  Level FlightAware ADS-B
Sun 09:15:55 AM 64.7660 -26.8540 281° West 417 480 31,000  Level FlightAware ADS-B
Sun 09:16:38 AM 64.7820 -27.0430 281° West 417 480 31,000  Level FlightAware ADS-B
Sun 09:17:10 AM 64.7940 -27.1900 281° West 418 481 31,000  Level FlightAware ADS-B
Sun 09:17:50 AM 64.8080 -27.3640 281° West 419 482 31,000  Level FlightAware ADS-B
Sun 09:18:26 AM 64.8220 -27.5290 281° West 419 482 31,000  Level FlightAware ADS-B
Sun 09:19:13 AM 64.8390 -27.7360 281° West 420 483 31,000  Level FlightAware ADS-B
Sun 09:19:52 AM 64.8520 -27.9080 280° West 420 483 31,000  Level FlightAware ADS-B
Sun 09:20:46 AM 64.8710 -28.1490 281° West 421 484 31,000  Level FlightAware ADS-B
Sun 09:21:19 AM 64.8800 -28.2760 280° West 421 484 31,000  Level FlightAware ADS-B
Sun 09:22:07 AM 64.8940 -28.4610 280° West 421 484 31,000  Level FlightAware ADS-B
Sun 09:22:54 AM 64.9140 -28.7300 280° West 423 487 31,000  Level FlightAware ADS-B
Sun 09:23:45 AM 64.9300 -28.9620 279° West 423 487 31,000  Level FlightAware ADS-B
Sun 09:24:05 AM 64.9370 -29.0480 281° West 424 488 31,000  Level FlightAware ADS-B
Sun 09:24:58 AM 64.9530 -29.2930 279° West 425 489 31,000  Level FlightAware ADS-B
Sun 09:25:33 AM 64.9650 -29.4560 280° West 426 490 31,000  Level FlightAware ADS-B
Sun 09:26:30 AM 64.9820 -29.7130 279° West 426 490 31,000  Level FlightAware ADS-B
Sun 09:27:03 AM 64.9920 -29.8670 279° West 427 491 31,000  Level FlightAware ADS-B
Sun 09:27:12 AM 64.9940 -29.8990 278° West 427 491 31,000  Level FlightAware ADS-B
Sun 09:28:04 AM 65.0060 -30.1040 278° West 427 491 31,000  Level FlightAware ADS-B
Sun 09:28:41 AM 65.0420 -30.3110 292° West 434 499 31,000  Level FlightAware ADS-B
Sun 09:29:20 AM 65.0620 -30.4620 288° West 434 499 31,000  Level FlightAware ADS-B
Sun 09:30:08 AM 65.0860 -30.6480 287° West 434 499 31,000  Level FlightAware ADS-B
Sun 09:30:45 AM 65.1040 -30.7910 287° West 434 499 31,000  Level FlightAware ADS-B
Sun 09:31:33 AM 65.1280 -30.9770 287° West 434 499 31,000  Level FlightAware ADS-B
Sun 09:31:57 AM 65.1400 -31.0710 287° West 434 499 31,000  Level FlightAware ADS-B
Sun 09:32:48 AM 65.1650 -31.2690 287° West 434 499 31,000  Level FlightAware ADS-B
Sun 09:33:24 AM 65.1830 -31.4090 287° West 434 499 31,000  Level FlightAware ADS-B
Sun 09:34:01 AM 65.2020 -31.5530 288° West 434 499 31,000  Level FlightAware ADS-B
Sun 09:34:48 AM 65.2250 -31.7360 287° West 434 499 31,000  Level FlightAware ADS-B
Sun 09:35:24 AM 65.2430 -31.8760 287° West 434 499 31,000  Level FlightAware ADS-B
Sun 09:36:00 AM 65.2610 -32.0160 287° West 434 499 31,000  Level FlightAware ADS-B
Sun 09:37:00 AM 65.2910 -32.2500 287° West 434 499 31,000  Level FlightAware ADS-B
Sun 09:37:36 AM 65.3090 -32.3910 287° West 434 499 31,000  Level FlightAware ADS-B
Sun 09:38:13 AM 65.3270 -32.5360 287° West 434 499 31,000  Level FlightAware ADS-B
Sun 09:38:37 AM 65.3390 -32.6300 287° West 434 499 31,000  Level FlightAware ADS-B
Sun 09:42:00 AM 65.1592 -33.4183 242° Southwest  Level Estimated
Sun 09:43:00 AM 65.1053 -33.6493 241° Southwest  Level Estimated
Sun 09:44:00 AM 65.0510 -33.8793 241° Southwest  Level Estimated
Sun 09:45:00 AM 64.9963 -34.1083 241° Southwest  Level Estimated
Sun 09:46:00 AM 64.9413 -34.3365 240° Southwest  Level Estimated
Sun 09:47:00 AM 64.8860 -34.5636 240° Southwest  Level Estimated
Sun 09:48:00 AM 64.8303 -34.7899 240° Southwest  Level Estimated
Sun 09:49:00 AM 64.7743 -35.0152 240° Southwest  Level Estimated
Sun 09:50:00 AM 64.7179 -35.2396 240° Southwest  Level Estimated
Sun 09:51:00 AM 64.6612 -35.4631 239° Southwest  Level Estimated
Sun 09:52:00 AM 64.6042 -35.6856 239° Southwest  Level Estimated
Sun 09:53:00 AM 64.5469 -35.9071 239° Southwest  Level Estimated
Sun 09:54:00 AM 64.4892 -36.1278 239° Southwest  Level Estimated
Sun 09:55:00 AM 64.4311 -36.3475 239° Southwest  Level Estimated
Sun 09:56:00 AM 64.3728 -36.5663 238° Southwest  Level Estimated
Sun 09:57:00 AM 64.3141 -36.7841 238° Southwest  Level Estimated
Sun 09:58:00 AM 64.2551 -37.0010 238° Southwest  Level Estimated
Sun 09:59:00 AM 64.1958 -37.2170 238° Southwest  Level Estimated
Sun 10:00:00 AM 64.1361 -37.4321 238° Southwest  Level Estimated
Sun 10:01:00 AM 64.0762 -37.6463 237° Southwest  Level Estimated
Sun 10:02:00 AM 64.0159 -37.8595 237° Southwest  Level Estimated
Sun 10:03:00 AM 63.9553 -38.0718 237° Southwest  Level Estimated
Sun 10:04:00 AM 63.8944 -38.2832 237° Southwest  Level Estimated
Sun 10:05:00 AM 63.8332 -38.4937 237° Southwest  Level Estimated
Sun 10:06:00 AM 63.7718 -38.7032 236° Southwest  Level Estimated
Sun 10:07:00 AM 63.7099 -38.9118 236° Southwest  Level Estimated
Sun 10:08:00 AM 63.6479 -39.1196 236° Southwest  Level Estimated
Sun 10:09:00 AM 63.5854 -39.3264 236° Southwest  Level Estimated
Sun 10:10:00 AM 63.5228 -39.5323 236° Southwest  Level Estimated
Sun 10:11:00 AM 63.4598 -39.7373 236° Southwest  Level Estimated
Sun 10:12:00 AM 63.3965 -39.9414 235° Southwest  Level Estimated
Sun 10:13:00 AM 63.3329 -40.1446 235° Southwest  Level Estimated
Sun 10:14:00 AM 63.2691 -40.3469 235° Southwest  Level Estimated
Sun 10:15:00 AM 63.2049 -40.5483 235° Southwest  Level Estimated
Sun 10:16:00 AM 63.1405 -40.7489 235° Southwest  Level Estimated
Sun 10:17:00 AM 63.0758 -40.9485 234° Southwest  Level Estimated
Sun 10:18:00 AM 63.0108 -41.1472 234° Southwest  Level Estimated
Sun 10:19:00 AM 62.9455 -41.3451 234° Southwest  Level Estimated
Sun 10:20:00 AM 62.8800 -41.5420 234° Southwest  Level Estimated
Sun 10:21:00 AM 62.8141 -41.7381 234° Southwest  Level Estimated
Sun 10:22:00 AM 62.7481 -41.9334 234° Southwest  Level Estimated
Sun 10:23:00 AM 62.6817 -42.1277 233° Southwest  Level Estimated
Sun 10:24:00 AM 62.6151 -42.3212 233° Southwest  Level Estimated
Sun 10:25:00 AM 62.5482 -42.5138 233° Southwest  Level Estimated
Sun 10:26:00 AM 62.4810 -42.7055 233° Southwest  Level Estimated
Sun 10:27:00 AM 62.4136 -42.8964 233° Southwest  Level Estimated
Sun 10:28:00 AM 62.3459 -43.0864 233° Southwest  Level Estimated
Sun 10:29:00 AM 62.2780 -43.2756 232° Southwest  Level Estimated
Sun 10:30:00 AM 62.2098 -43.4638 232° Southwest  Level Estimated
Sun 10:31:00 AM 62.1413 -43.6513 232° Southwest  Level Estimated
Sun 10:32:00 AM 62.0727 -43.8379 232° Southwest  Level Estimated
Sun 10:33:00 AM 62.0037 -44.0237 232° Southwest  Level Estimated
Sun 10:34:00 AM 61.9345 -44.2086 232° Southwest  Level Estimated
Sun 10:35:00 AM 61.8651 -44.3927 231° Southwest  Level Estimated
Sun 10:36:00 AM 61.7954 -44.5759 231° Southwest  Level Estimated
Sun 10:37:00 AM 61.7254 -44.7584 231° Southwest  Level Estimated
Sun 10:38:00 AM 61.6553 -44.9399 231° Southwest  Level Estimated
Sun 10:39:00 AM 61.5849 -45.1207 231° Southwest  Level Estimated
Sun 10:40:00 AM 61.5142 -45.3007 231° Southwest  Level Estimated
Sun 10:41:00 AM 61.4433 -45.4798 230° Southwest  Level Estimated
Sun 10:42:00 AM 61.3722 -45.6581 230° Southwest  Level Estimated
Sun 10:43:00 AM 61.3009 -45.8356 230° Southwest  Level Estimated
Sun 10:44:00 AM 61.2293 -46.0123 230° Southwest  Level Estimated
Sun 10:45:00 AM 61.1575 -46.1882 230° Southwest  Level Estimated
Sun 10:46:00 AM 61.0854 -46.3633 230° Southwest  Level Estimated
Sun 10:46:31 AM 64.6970 -51.8770 229° Southwest 424 488 31,000  Level FlightAware ADS-B
Sun 10:47:00 AM 61.0132 -46.5376 229° Southwest  Level Estimated
Sun 10:47:31 AM 64.6530 -52.1300 248° West 425 489 31,000  Level FlightAware ADS-B
Sun 10:48:00 AM 60.9407 -46.7111 229° Southwest  Level Estimated
Sun 10:48:12 AM 64.6230 -52.3040 248° West 423 487 31,000  Level FlightAware ADS-B
Sun 10:49:02 AM 64.5900 -52.4930 248° West 424 488 31,000  Level FlightAware ADS-B
Sun 10:49:29 AM 64.5670 -52.6230 248° West 423 487 31,000  Level FlightAware ADS-B
Sun 10:50:06 AM 64.5430 -52.7550 247° West 423 487 31,000  Level FlightAware ADS-B
Sun 10:51:21 AM 64.4950 -53.0220 247° West 423 487 31,000  Level FlightAware ADS-B
Sun 10:51:57 AM 64.4710 -53.1500 247° West 423 487 31,000  Level FlightAware ADS-B
Sun 10:52:21 AM 64.4550 -53.2350 246° West 423 487 31,000  Level FlightAware ADS-B
Sun 10:52:58 AM 64.4310 -53.3670 247° West 423 487 31,000  Level FlightAware ADS-B
Sun 10:53:34 AM 64.4080 -53.4940 247° West 423 487 31,000  Level FlightAware ADS-B
Sun 10:54:11 AM 64.3840 -53.6250 247° West 423 487 31,000  Level FlightAware ADS-B
Sun 10:54:59 AM 64.3530 -53.7950 247° West 423 487 31,000  Level FlightAware ADS-B
Sun 10:55:34 AM 64.3300 -53.9190 247° West 423 487 31,000  Level FlightAware ADS-B
Sun 10:56:11 AM 64.3060 -54.0500 247° West 423 487 31,000  Level FlightAware ADS-B
Sun 10:57:10 AM 64.2670 -54.2580 247° West 423 487 31,000  Level FlightAware ADS-B
Sun 10:57:34 AM 64.2520 -54.3420 248° West 423 487 31,000  Level FlightAware ADS-B
Sun 10:58:21 AM 64.2210 -54.5080 247° West 423 487 31,000  Level FlightAware ADS-B
Sun 10:59:09 AM 64.1900 -54.6770 247° West 423 487 31,000  Level FlightAware ADS-B
Sun 10:59:21 AM 64.1820 -54.7190 246° West 423 487 31,000  Level FlightAware ADS-B
Sun 11:00:29 AM 64.0833 -55.1833 217° Southwest 410 472 31,000  Level Gander Center
Sun 11:01:29 AM 64.0500 -55.4167 252° West 420 483 31,000  Level Gander Center
Sun 11:02:00 AM 63.9469 -55.1242 217° Southwest  Level Estimated
Sun 11:02:29 AM 64.0000 -55.6667 246° West 420 483 31,000  Level Gander Center
Sun 11:03:00 AM 63.8579 -55.2753 217° Southwest  Level Estimated
Sun 11:03:29 AM 63.9500 -55.9000 244° Southwest 420 483 31,000  Level Gander Center
Sun 11:04:00 AM 63.7688 -55.4255 217° Southwest  Level Estimated
Sun 11:04:29 AM 63.9000 -56.1667 247° West 420 483 31,000  Level Gander Center
Sun 11:05:00 AM 63.6795 -55.5747 217° Southwest  Level Estimated
Sun 11:05:29 AM 63.8500 -56.4000 244° Southwest 420 483 31,000  Level Gander Center
Sun 11:06:29 AM 63.8000 -56.6333 244° Southwest 420 483 31,000  Level Gander Center
Sun 11:07:29 AM 63.7500 -56.8667 244° Southwest 420 483 31,000  Level Gander Center
Sun 11:08:29 AM 63.6833 -57.1000 237° Southwest 430 495 31,000  Level Gander Center
Sun 11:09:29 AM 63.6500 -57.3333 252° West 430 495 31,000  Level Gander Center
Sun 11:10:29 AM 63.5833 -57.5667 237° Southwest 430 495 31,000  Level Gander Center
Sun 11:11:29 AM 63.5167 -57.7667 233° Southwest 420 483 31,000  Level Gander Center
Sun 11:12:20 AM 63.4167 -57.8833 208° Southwest 430 495 31,000  Level Montreal Center
Sun 11:13:20 AM 63.3500 -58.0833 233° Southwest 430 495 31,000  Level Montreal Center
Sun 11:14:20 AM 63.2667 -58.2833 227° Southwest 430 495 31,000  Level Montreal Center
Sun 11:15:20 AM 63.2000 -58.4333 225° Southwest 410 472 31,000  Level Montreal Center
Sun 11:16:29 AM 63.1167 -58.7500 240° Southwest 420 483 31,000  Level Gander Center
Sun 11:17:29 AM 63.0333 -58.9500 227° Southwest 440 506 31,000  Level Gander Center
Sun 11:18:29 AM 62.9500 -59.1333 225° Southwest 420 483 31,000  Level Gander Center
Sun 11:19:29 AM 62.8667 -59.3167 225° Southwest 410 472 31,000  Level Gander Center
Sun 11:20:29 AM 62.8000 -59.5000 232° Southwest 420 483 31,000  Level Gander Center
Sun 11:21:29 AM 62.7000 -59.7333 227° Southwest 430 495 31,000  Level Gander Center
Sun 11:22:29 AM 62.6333 -59.8833 226° Southwest 420 483 31,000  Level Gander Center
Sun 11:24:00 AM 62.4826 -60.1246 217° Southwest  Level FlightAware Approximate
Sun 11:25:23 AM 62.3833 -60.4167 217° Southwest 280 322 31,000  Level Gander Center
Sun 11:26:23 AM 62.3000 -60.6333 230° Southwest 430 495 31,000  Level Gander Center
Sun 11:27:23 AM 62.2167 -60.8167 226° Southwest 430 495 31,000  Level Gander Center
Sun 11:28:23 AM 62.1500 -60.9667 226° Southwest 430 495 31,000  Level Gander Center
Sun 11:30:08 AM 62.0000 -61.3167 228° Southwest 310 357 31,000  Level Gander Center
Sun 11:31:08 AM 61.9167 -61.5333 231° Southwest 460 529 31,000  Level Gander Center
Sun 11:32:08 AM 61.8333 -61.6667 217° Southwest 450 518 31,000  Level Gander Center
Sun 11:33:05 AM 61.7333 -61.8000 212° Southwest 850 978 31,000  Level Montreal Center
Sun 11:34:05 AM 61.6500 -61.9667 224° Southwest 590 679 31,000  Level Montreal Center
Sun 11:35:05 AM 61.5667 -62.1500 226° Southwest 480 552 31,000  Level Montreal Center
Sun 11:36:05 AM 61.4833 -62.3333 226° Southwest 450 518 31,000  Level Montreal Center
Sun 11:37:05 AM 61.4000 -62.5167 227° Southwest 440 506 31,000  Level Montreal Center
Sun 11:38:05 AM 61.3167 -62.6500 218° Southwest 430 495 31,000  Level Montreal Center
Sun 11:39:05 AM 61.2333 -62.8333 227° Southwest 430 495 31,000  Level Montreal Center
Sun 11:40:05 AM 61.1500 -63.0500 231° Southwest 440 506 31,000  Level Montreal Center
Sun 11:41:05 AM 61.0667 -63.2167 224° Southwest 430 495 31,000  Level Montreal Center
Sun 11:42:05 AM 60.9667 -63.4000 222° Southwest 430 495 31,000  Level Montreal Center
Sun 11:43:05 AM 60.8667 -63.5667 219° Southwest 430 495 31,000  Level Montreal Center
Sun 11:44:05 AM 60.7833 -63.7500 227° Southwest 440 506 31,000 50 Level Montreal Center
Sun 11:45:05 AM 60.7000 -63.9167 224° Southwest 440 506 31,100 406 Climbing Montreal Center
Sun 11:47:00 AM 60.5039 -64.2641 221° Southwest  Level FlightAware Approximate
Sun 11:51:28 AM 60.1333 -65.0167 221° Southwest 440 506 34,000  Level Gander Center
Sun 11:52:05 AM 60.0833 -65.0500 198° South 440 506 34,000  Level Montreal Center
Sun 11:53:05 AM 60.0000 -65.2167 225° Southwest 450 518 34,000  Level Montreal Center
Sun 11:54:00 AM 59.8420 -65.4743 223° Southwest  Level FlightAware Approximate
Sun 11:54:05 AM 59.9000 -65.4167 225° Southwest 450 518 34,000  Level Montreal Center
Sun 11:55:00 AM 59.7470 -65.6442 222° Southwest  Level FlightAware Approximate
Sun 11:55:05 AM 59.8000 -65.5833 220° Southwest 450 518 34,000  Level Montreal Center
Sun 11:56:00 AM 59.6517 -65.8132 222° Southwest  Level FlightAware Approximate
Sun 11:56:05 AM 59.7167 -65.7500 225° Southwest 450 518 34,000  Level Montreal Center
Sun 11:57:00 AM 59.5563 -65.9812 222° Southwest  Level FlightAware Approximate
Sun 11:57:05 AM 59.6000 -65.9000 213° Southwest 450 518 34,000  Level Montreal Center
Sun 11:58:00 AM 59.4606 -66.1482 222° Southwest  Level FlightAware Approximate
Sun 11:58:05 AM 59.5167 -66.0667 225° Southwest 440 506 34,000  Level Montreal Center
Sun 11:59:00 AM 59.3647 -66.3143 221° Southwest  Level FlightAware Approximate
Sun 11:59:05 AM 59.4333 -66.2333 226° Southwest 440 506 34,000  Level Montreal Center
Sun 12:00:00 PM 59.2686 -66.4795 221° Southwest  Level FlightAware Approximate
Sun 12:00:05 PM 59.3333 -66.3833 217° Southwest 440 506 34,000  Level Montreal Center
Sun 12:01:00 PM 59.1723 -66.6437 221° Southwest  Level FlightAware Approximate
Sun 12:01:05 PM 59.2500 -66.5500 226° Southwest 440 506 34,000  Level Montreal Center
Sun 12:02:05 PM 59.1500 -66.7000 218° Southwest 440 506 34,000  Level Montreal Center
Sun 12:03:05 PM 59.0667 -66.8500 223° Southwest 440 506 34,000  Level Montreal Center
Sun 12:04:05 PM 58.9833 -67.0167 226° Southwest 440 506 34,000  Level Montreal Center
Sun 12:05:05 PM 58.8667 -67.1667 214° Southwest 440 506 34,000  Level Montreal Center
Sun 12:06:05 PM 58.7833 -67.3167 223° Southwest 440 506 34,000  Level Montreal Center
Sun 12:07:05 PM 58.6833 -67.4667 218° Southwest 440 506 34,000  Level Montreal Center
Sun 12:08:05 PM 58.6000 -67.6167 223° Southwest 440 506 34,000  Level Montreal Center
Sun 12:09:05 PM 58.4833 -67.7833 217° Southwest 440 506 34,000  Level Montreal Center
Sun 12:10:05 PM 58.4000 -67.9333 223° Southwest 440 506 34,000  Level Montreal Center
Sun 12:11:05 PM 58.3000 -68.0833 218° Southwest 440 506 34,000  Level Montreal Center
Sun 12:12:05 PM 58.2000 -68.2333 218° Southwest 450 518 34,000  Level Montreal Center
Sun 12:13:44 PM 58.0500 -68.5000 223° Southwest 470 541 34,000  Level Gander Center
Sun 12:14:44 PM 57.9500 -68.6500 219° Southwest 460 529 34,000  Level Gander Center
Sun 12:15:44 PM 57.8500 -68.7833 215° Southwest 450 518 34,000  Level Gander Center
Sun 12:16:44 PM 57.7500 -68.9500 222° Southwest 450 518 34,000  Level Gander Center
Sun 12:17:44 PM 57.6333 -69.0833 211° Southwest 450 518 34,000  Level Gander Center
Sun 12:18:44 PM 57.5500 -69.2167 221° Southwest 450 518 34,000  Level Gander Center
Sun 12:19:44 PM 57.4333 -69.3500 212° Southwest 450 518 34,000  Level Gander Center
Sun 12:20:44 PM 57.3500 -69.4833 221° Southwest 450 518 34,000  Level Gander Center
Sun 12:21:44 PM 57.2333 -69.6167 212° Southwest 450 518 34,000  Level Gander Center
Sun 12:22:44 PM 57.1500 -69.7500 221° Southwest 450 518 34,000  Level Gander Center
Sun 12:23:44 PM 57.0333 -69.8833 212° Southwest 450 518 34,000  Level Gander Center
Sun 12:24:44 PM 56.9333 -70.0167 216° Southwest 450 518 34,000  Level Gander Center
Sun 12:25:44 PM 56.8333 -70.1500 216° Southwest 450 518 34,000  Level Gander Center
Sun 12:26:44 PM 56.7167 -70.2667 209° Southwest 450 518 34,000  Level Gander Center
Sun 12:27:44 PM 56.6333 -70.4000 221° Southwest 450 518 34,000  Level Gander Center
Sun 12:28:44 PM 56.5167 -70.5333 212° Southwest 450 518 34,000  Level Gander Center
Sun 12:29:44 PM 56.4333 -70.6333 214° Southwest 450 518 34,000  Level Gander Center
Sun 12:30:44 PM 56.3167 -70.7833 216° Southwest 450 518 34,000  Level Gander Center
Sun 12:31:44 PM 56.2000 -70.9000 209° Southwest 450 518 34,000  Level Gander Center
Sun 12:32:44 PM 56.1167 -71.0333 222° Southwest 450 518 34,000  Level Gander Center
Sun 12:33:44 PM 56.0000 -71.1667 213° Southwest 440 506 34,000  Level Gander Center
Sun 12:34:44 PM 55.9000 -71.2833 213° Southwest 440 506 34,000  Level Gander Center
Sun 12:35:44 PM 55.8000 -71.3833 209° Southwest 440 506 34,000  Level Gander Center
Sun 12:36:44 PM 55.7000 -71.5000 213° Southwest 440 506 34,000  Level Gander Center
Sun 12:37:44 PM 55.6000 -71.6167 213° Southwest 430 495 34,000  Level Gander Center
Sun 12:38:44 PM 55.5000 -71.7500 217° Southwest 440 506 34,000  Level Gander Center
Sun 12:39:44 PM 55.4000 -71.8667 214° Southwest 440 506 34,000  Level Gander Center
Sun 12:40:44 PM 55.3000 -71.9833 214° Southwest 440 506 34,000  Level Gander Center
Sun 12:41:44 PM 55.2000 -72.0833 210° Southwest 440 506 34,000  Level Gander Center
Sun 12:42:44 PM 55.0833 -72.2000 210° Southwest 440 506 34,000  Level Gander Center
Sun 12:43:44 PM 54.9833 -72.3500 221° Southwest 440 506 34,000  Level Gander Center
Sun 12:44:44 PM 54.8833 -72.4667 214° Southwest 440 506 34,000  Level Gander Center
Sun 12:45:44 PM 54.7833 -72.5833 214° Southwest 440 506 34,000  Level Gander Center
Sun 12:46:44 PM 54.6833 -72.6667 206° Southwest 440 506 34,000  Level Gander Center
Sun 12:47:44 PM 54.5833 -72.8000 218° Southwest 440 506 34,000  Level Gander Center
Sun 12:48:44 PM 54.4667 -72.9000 206° Southwest 440 506 34,000  Level Gander Center
Sun 12:49:44 PM 54.3667 -73.0167 214° Southwest 440 506 34,000  Level Gander Center
Sun 12:50:44 PM 54.2667 -73.1333 214° Southwest 440 506 34,000  Level Gander Center
Sun 12:51:44 PM 54.1667 -73.2500 214° Southwest 440 506 34,000  Level Gander Center
Sun 12:52:44 PM 54.0500 -73.3667 210° Southwest 440 506 34,000  Level Gander Center
Sun 12:53:44 PM 53.9500 -73.4833 214° Southwest 440 506 34,000  Level Gander Center
Sun 12:54:44 PM 53.8667 -73.5667 211° Southwest 440 506 34,000  Level Gander Center
Sun 12:55:44 PM 53.7500 -73.7000 214° Southwest 440 506 34,000  Level Gander Center
Sun 12:56:44 PM 53.6333 -73.7833 203° Southwest 440 506 34,000  Level Gander Center
Sun 12:57:44 PM 53.5333 -73.9000 215° Southwest 440 506 34,000  Level Gander Center
Sun 12:58:44 PM 53.4167 -73.9833 203° Southwest 450 518 34,000  Level Gander Center
Sun 12:59:44 PM 53.3000 -74.0833 207° Southwest 450 518 34,000  Level Gander Center
Sun 01:00:44 PM 53.2000 -74.1667 207° Southwest 440 506 34,000  Level Gander Center
Sun 01:01:44 PM 53.0833 -74.2500 203° Southwest 450 518 34,000  Level Gander Center
Sun 01:02:44 PM 52.9667 -74.3500 207° Southwest 450 518 34,000  Level Gander Center
Sun 01:03:44 PM 52.8833 -74.4333 211° Southwest 440 506 34,000  Level Gander Center
Sun 01:04:44 PM 52.7667 -74.5333 207° Southwest 440 506 34,000  Level Gander Center
Sun 01:05:44 PM 52.6500 -74.6167 203° Southwest 440 506 34,000  Level Gander Center
Sun 01:06:44 PM 52.5500 -74.7000 207° Southwest 440 506 34,000  Level Gander Center
Sun 01:07:44 PM 52.4333 -74.8000 208° Southwest 440 506 34,000  Level Gander Center
Sun 01:08:44 PM 52.3167 -74.8833 204° Southwest 440 506 34,000  Level Gander Center
Sun 01:09:44 PM 52.2000 -74.9833 208° Southwest 440 506 34,000  Level Gander Center
Sun 01:10:44 PM 52.1000 -75.0500 202° Southwest 440 506 34,000  Level Gander Center
Sun 01:11:44 PM 51.9833 -75.1667 212° Southwest 450 518 34,000  Level Gander Center
Sun 01:12:44 PM 51.8667 -75.2333 199° South 440 506 34,000  Level Gander Center
Sun 01:13:44 PM 51.7667 -75.3167 207° Southwest 440 506 34,000  Level Gander Center
Sun 01:15:09 PM 51.6000 -75.4000 197° South 440 506 34,000  Level Montreal Center
Sun 01:16:09 PM 51.5000 -75.4833 207° Southwest 440 506 34,000  Level Montreal Center
Sun 01:17:09 PM 51.3833 -75.5667 204° Southwest 440 506 34,000  Level Montreal Center
Sun 01:18:09 PM 51.2667 -75.6500 204° Southwest 440 506 34,000  Level Montreal Center
Sun 01:19:09 PM 51.1500 -75.7167 200° South 440 506 34,000  Level Montreal Center
Sun 01:20:09 PM 51.0500 -75.8000 208° Southwest 440 506 34,000  Level Montreal Center
Sun 01:21:09 PM 50.9333 -75.9167 212° Southwest 440 506 34,000  Level Montreal Center
Sun 01:22:09 PM 50.8167 -76.0000 204° Southwest 440 506 34,000  Level Montreal Center
Sun 01:23:09 PM 50.7000 -76.0667 200° South 440 506 34,000  Level Montreal Center
Sun 01:24:09 PM 50.6000 -76.1500 208° Southwest 440 506 34,000  Level Montreal Center
Sun 01:25:09 PM 50.4833 -76.2333 204° Southwest 440 506 34,000  Level Montreal Center
Sun 01:26:09 PM 50.3833 -76.3167 208° Southwest 440 506 34,000  Level Montreal Center
Sun 01:27:09 PM 50.2667 -76.3833 200° South 440 506 34,000  Level Montreal Center
Sun 01:28:09 PM 50.1500 -76.4667 205° Southwest 440 506 34,000  Level Montreal Center
Sun 01:29:09 PM 50.0333 -76.5500 205° Southwest 440 506 34,000  Level Montreal Center
Sun 01:30:09 PM 49.9167 -76.6167 200° South 440 506 34,000  Level Montreal Center
Sun 01:31:09 PM 49.8167 -76.7000 208° Southwest 440 506 34,000  Level Montreal Center
Sun 01:32:09 PM 49.7000 -76.8000 209° Southwest 440 506 34,000  Level Montreal Center
Sun 01:33:09 PM 49.5833 -76.8667 200° South 440 506 34,000  Level Montreal Center
Sun 01:34:09 PM 49.4833 -76.9500 208° Southwest 430 495 34,000  Level Montreal Center
Sun 01:35:09 PM 49.3667 -77.0167 200° South 470 541 34,000  Level Montreal Center
Sun 01:36:09 PM 49.2500 -77.1000 205° Southwest 430 495 34,000  Level Montreal Center
Sun 01:37:09 PM 49.1333 -77.1667 201° Southwest 450 518 34,000  Level Montreal Center
Sun 01:38:09 PM 49.0333 -77.2500 209° Southwest 450 518 34,000  Level Montreal Center
Sun 01:39:09 PM 48.9000 -77.3167 198° South 450 518 34,000  Level Montreal Center
Sun 01:40:09 PM 48.7833 -77.4167 209° Southwest 450 518 34,000  Level Montreal Center
Sun 01:41:09 PM 48.6667 -77.5000 205° Southwest 460 529 34,000  Level Montreal Center
Sun 01:46:13 PM 48.0810 -77.8770 205° Southwest 34,000  Level FlightAware ADS-B
Sun 01:47:30 PM 47.9440 -77.9550 201° Southwest 464 534 34,000  Level FlightAware ADS-B
Sun 01:47:55 PM 47.9010 -77.9790 201° Southwest 464 534 34,000  Level FlightAware ADS-B
Sun 01:48:29 PM 47.8440 -78.0120 201° Southwest 464 534 34,000  Level FlightAware ADS-B
Sun 01:49:15 PM 47.7650 -78.0570 201° Southwest 464 534 34,000  Level FlightAware ADS-B
Sun 01:50:14 PM 47.5950 -78.1580 202° Southwest 461 531 34,000  Level FlightAware ADS-B
Sun 01:51:10 PM 47.4850 -78.2220 201° Southwest 460 529 34,000  Level FlightAware ADS-B
Sun 01:52:30 PM 47.3270 -78.3120 201° Southwest 461 531 34,000  Level FlightAware ADS-B
Sun 01:53:32 PM 47.2020 -78.3830 201° Southwest 461 531 34,000  Level FlightAware ADS-B
Sun 01:54:07 PM 47.1320 -78.4220 201° Southwest 463 533 34,000  Level FlightAware ADS-B
Sun 01:54:44 PM 47.0580 -78.4640 201° Southwest 464 534 34,000  Level FlightAware ADS-B
Sun 01:55:24 PM 46.9790 -78.5080 201° Southwest 466 536 34,000  Level FlightAware ADS-B
Sun 01:56:08 PM 46.8900 -78.5580 201° Southwest 467 537 34,000  Level FlightAware ADS-B
Sun 01:56:43 PM 46.8180 -78.5980 201° Southwest 468 539 34,000  Level FlightAware ADS-B
Sun 01:57:22 PM 46.7400 -78.6420 201° Southwest 470 541 34,000  Level FlightAware ADS-B
Sun 01:58:07 PM 46.6480 -78.6930 201° Southwest 472 543 34,000  Level FlightAware ADS-B
Sun 01:58:45 PM 46.5700 -78.7360 201° Southwest 473 544 34,000  Level FlightAware ADS-B
Sun 01:59:29 PM 46.4800 -78.7850 201° Southwest 474 545 34,000  Level FlightAware ADS-B
Sun 01:59:54 PM 46.4290 -78.8140 201° Southwest 473 544 34,000  Level FlightAware ADS-B
Sun 02:00:37 PM 46.3410 -78.8620 201° Southwest 474 545 34,000  Level FlightAware ADS-B
Sun 02:01:14 PM 46.2670 -78.9030 201° Southwest 474 545 34,000  Level FlightAware ADS-B
Sun 02:01:56 PM 46.1810 -78.9500 201° Southwest 473 544 34,000  Level FlightAware ADS-B
Sun 02:02:36 PM 46.0980 -78.9950 201° Southwest 474 545 34,000  Level FlightAware ADS-B
Sun 02:03:08 PM 46.0330 -79.0300 200° South 473 544 34,000  Level FlightAware ADS-B
Sun 02:03:40 PM 45.9670 -79.0650 200° South 474 545 34,000  Level FlightAware ADS-B
Sun 02:04:18 PM 45.8890 -79.1070 201° Southwest 474 545 34,000  Level FlightAware ADS-B
Sun 02:04:58 PM 45.8080 -79.1510 201° Southwest 474 545 34,000  Level FlightAware ADS-B
Sun 02:05:40 PM 45.7210 -79.1970 200° South 476 548 34,000  Level FlightAware ADS-B
Sun 02:06:22 PM 45.6380 -79.2410 200° South 476 548 34,000  Level FlightAware ADS-B
Sun 02:06:58 PM 45.5610 -79.2830 201° Southwest 476 548 34,000  Level FlightAware ADS-B
Sun 02:07:35 PM 45.4830 -79.3240 200° South 475 547 34,000  Level FlightAware ADS-B
Sun 02:08:16 PM 45.3990 -79.3680 200° South 475 547 34,000  Level FlightAware ADS-B
Sun 02:08:53 PM 45.3260 -79.4070 201° Southwest 476 548 34,000  Level FlightAware ADS-B
Sun 02:09:42 PM 45.2230 -79.4610 200° South 476 548 34,000  Level FlightAware ADS-B
Sun 02:10:18 PM 45.1470 -79.5010 200° South 476 548 34,000  Level FlightAware ADS-B
Sun 02:10:59 PM 45.0620 -79.5450 200° South 476 548 34,000  Level FlightAware ADS-B
Sun 02:11:42 PM 44.9730 -79.5910 200° South 476 548 34,000  Level FlightAware ADS-B
Sun 02:12:16 PM 44.9100 -79.6240 200° South 477 549 34,000  Level FlightAware ADS-B
Sun 02:12:46 PM 44.8410 -79.6600 200° South 478 550 34,000  Level FlightAware ADS-B
Sun 02:13:20 PM 44.7720 -79.6950 200° South 478 550 34,000  Level FlightAware ADS-B
Sun 02:13:56 PM 44.6950 -79.7350 200° South 479 551 34,000  Level FlightAware ADS-B
Sun 02:14:33 PM 44.6170 -79.7750 200° South 478 550 34,000  Level FlightAware ADS-B
Sun 02:15:08 PM 44.5490 -79.8230 207° Southwest 465 535 34,000  Level FlightAware ADS-B
Sun 02:16:17 PM 44.4240 -79.9350 213° Southwest 464 534 34,000  Level FlightAware ADS-B
Sun 02:16:53 PM 44.3610 -79.9920 213° Southwest 464 534 34,000  Level FlightAware ADS-B
Sun 02:17:33 PM 44.2890 -80.0570 213° Southwest 465 535 34,000  Level FlightAware ADS-B
Sun 02:18:06 PM 44.2290 -80.1110 213° Southwest 463 533 34,000  Level FlightAware ADS-B
Sun 02:18:45 PM 44.1580 -80.1740 212° Southwest 464 534 34,000  Level FlightAware ADS-B
Sun 02:19:26 PM 44.0840 -80.2400 213° Southwest 464 534 34,000  Level FlightAware ADS-B
Sun 02:20:01 PM 44.0230 -80.2940 212° Southwest 463 533 34,000  Level FlightAware ADS-B
Sun 02:20:55 PM 43.9230 -80.3820 212° Southwest 461 531 34,000  Level FlightAware ADS-B
Sun 02:21:39 PM 43.8450 -80.4510 213° Southwest 459 528 34,000  Level FlightAware ADS-B
Sun 02:22:11 PM 43.7890 -80.5000 212° Southwest 458 527 34,000  Level FlightAware ADS-B
Sun 02:22:41 PM 43.7350 -80.5470 212° Southwest 458 527 34,000  Level FlightAware ADS-B
Sun 02:23:23 PM 43.6600 -80.6130 212° Southwest 457 526 34,000  Level FlightAware ADS-B
Sun 02:23:59 PM 43.5940 -80.6700 212° Southwest 456 525 34,000  Level FlightAware ADS-B
Sun 02:24:38 PM 43.5240 -80.7310 212° Southwest 455 524 34,000  Level FlightAware ADS-B
Sun 02:25:26 PM 43.4400 -80.8040 212° Southwest 454 522 34,000  Level FlightAware ADS-B
Sun 02:25:59 PM 43.3820 -80.8540 212° Southwest 453 521 34,000  Level FlightAware ADS-B
Sun 02:26:38 PM 43.3120 -80.9140 212° Southwest 452 520 34,000  Level FlightAware ADS-B
Sun 02:27:22 PM 43.2350 -80.9800 212° Southwest 451 519 34,000  Level FlightAware ADS-B
Sun 02:27:51 PM 43.1850 -81.0230 212° Southwest 450 518 34,000  Level FlightAware ADS-B
Sun 02:28:30 PM 43.1170 -81.0820 212° Southwest 450 518 34,000  Level FlightAware ADS-B
Sun 02:29:39 PM 42.9940 -81.1760 209° Southwest 457 526 34,000  Level FlightAware ADS-B
Sun 02:30:34 PM 42.8830 -81.2450 204° Southwest 458 527 34,000  Level FlightAware ADS-B
Sun 02:31:42 PM 42.7530 -81.3240 204° Southwest 456 525 34,000  Level FlightAware ADS-B
Sun 02:32:35 PM 42.6490 -81.3890 205° Southwest 457 526 34,000  Level FlightAware ADS-B
Sun 02:33:12 PM 42.5810 -81.4300 204° Southwest 457 526 34,000 584 Level FlightAware ADS-B
Sun 02:34:28 PM 42.4350 -81.5190 204° Southwest 444 511 35,100 909 Climbing FlightAware ADS-B
Sun 02:35:24 PM 42.3290 -81.5830 204° Southwest 426 490 36,000 563 Climbing FlightAware ADS-B
Sun 02:36:04 PM 42.2580 -81.6260 204° Southwest 434 499 36,000  Level FlightAware ADS-B
Sun 02:36:31 PM 42.2110 -81.6550 205° Southwest 435 501 36,000  Level FlightAware ADS-B
Sun 02:37:05 PM 42.1470 -81.6940 204° Southwest 438 504 36,000  Level FlightAware ADS-B
Sun 02:37:35 PM 42.0940 -81.7250 203° Southwest 438 504 36,000  Level FlightAware ADS-B
Sun 02:38:29 PM 42.0030 -81.7800 204° Southwest 437 503 36,000  Level FlightAware ADS-B
Sun 02:39:12 PM 41.9120 -81.8340 204° Southwest 436 502 36,000  Level FlightAware ADS-B
Sun 02:39:38 PM 41.8620 -81.8640 204° Southwest 436 502 36,000  Level FlightAware ADS-B
Sun 02:40:30 PM 41.7690 -81.9200 204° Southwest 435 501 36,000  Level FlightAware ADS-B
Sun 02:41:10 PM 41.6960 -81.9620 203° Southwest 435 501 36,000  Level FlightAware ADS-B
Sun 02:41:42 PM 41.6350 -81.9990 204° Southwest 434 499 36,000  Level FlightAware ADS-B
Sun 02:42:20 PM 41.5680 -82.0380 204° Southwest 435 501 36,000  Level FlightAware ADS-B
Sun 02:42:52 PM 41.5060 -82.0750 204° Southwest 436 502 36,000  Level FlightAware ADS-B
Sun 02:43:28 PM 41.4380 -82.1150 204° Southwest 436 502 36,000  Level FlightAware ADS-B
Sun 02:44:39 PM 41.3050 -82.1810 200° South 447 514 36,000  Level FlightAware ADS-B
Sun 02:45:07 PM 41.2480 -82.2020 195° South 449 517 36,000  Level FlightAware ADS-B
Sun 02:45:47 PM 41.1700 -82.2300 195° South 449 517 36,000  Level FlightAware ADS-B
Sun 02:46:27 PM 41.0890 -82.2580 195° South 448 516 36,000  Level FlightAware ADS-B
Sun 02:46:59 PM 41.0230 -82.2820 195° South 447 514 36,000  Level FlightAware ADS-B
Sun 02:47:41 PM 40.9380 -82.3120 195° South 447 514 36,000  Level FlightAware ADS-B
Sun 02:48:13 PM 40.8750 -82.3340 195° South 446 513 36,000  Level FlightAware ADS-B
Sun 02:48:55 PM 40.7910 -82.3640 195° South 445 512 36,000  Level FlightAware ADS-B
Sun 02:49:47 PM 40.6870 -82.4010 195° South 445 512 36,000  Level FlightAware ADS-B
Sun 02:50:13 PM 40.6360 -82.4190 195° South 445 512 36,000  Level FlightAware ADS-B
Sun 02:50:45 PM 40.5740 -82.4410 195° South 446 513 36,000  Level FlightAware ADS-B
Sun 02:51:24 PM 40.4990 -82.4670 195° South 446 513 36,000  Level FlightAware ADS-B
Sun 02:52:01 PM 40.4220 -82.4940 195° South 446 513 36,000  Level FlightAware ADS-B
Sun 02:52:37 PM 40.3490 -82.5190 195° South 447 514 36,000  Level FlightAware ADS-B
Sun 02:53:07 PM 40.2900 -82.5400 195° South 446 513 36,000  Level FlightAware ADS-B
Sun 02:53:39 PM 40.2250 -82.5620 194° South 446 513 36,000  Level FlightAware ADS-B
Sun 02:54:07 PM 40.1690 -82.5810 195° South 450 518 36,000  Level FlightAware ADS-B
Sun 02:54:45 PM 40.0900 -82.5930 187° South 460 529 36,000  Level FlightAware ADS-B
Sun 02:55:47 PM 39.9580 -82.6020 183° South 462 532 36,000  Level FlightAware ADS-B
Sun 02:56:17 PM 39.8940 -82.6060 183° South 461 531 36,000  Level FlightAware ADS-B
Sun 02:56:45 PM 39.8330 -82.6100 183° South 461 531 36,000  Level FlightAware ADS-B
Sun 02:57:31 PM 39.7350 -82.6160 183° South 462 532 36,000  Level FlightAware ADS-B
Sun 02:58:11 PM 39.6490 -82.6220 183° South 462 532 36,000  Level FlightAware ADS-B
Sun 02:58:55 PM 39.5550 -82.6280 183° South 461 531 36,000  Level FlightAware ADS-B
Sun 02:59:27 PM 39.4890 -82.6330 183° South 460 529 36,000  Level FlightAware ADS-B
Sun 03:00:07 PM 39.4020 -82.6390 183° South 460 529 36,000  Level FlightAware ADS-B
Sun 03:00:43 PM 39.3270 -82.6440 183° South 460 529 36,000  Level FlightAware ADS-B
Sun 03:01:19 PM 39.2510 -82.6490 183° South 460 529 36,000  Level FlightAware ADS-B
Sun 03:01:49 PM 39.1840 -82.6530 183° South 461 531 36,000  Level FlightAware ADS-B
Sun 03:02:24 PM 39.1140 -82.6580 183° South 460 529 36,000  Level FlightAware ADS-B
Sun 03:03:03 PM 39.0270 -82.6640 183° South 460 529 36,000  Level FlightAware ADS-B
Sun 03:03:31 PM 38.9690 -82.6680 183° South 459 528 36,000  Level FlightAware ADS-B
Sun 03:04:11 PM 38.8850 -82.6730 183° South 459 528 36,000  Level FlightAware ADS-B
Sun 03:04:47 PM 38.8070 -82.6780 183° South 459 528 36,000  Level FlightAware ADS-B
Sun 03:05:29 PM 38.7200 -82.6840 183° South 459 528 36,000  Level FlightAware ADS-B
Sun 03:06:32 PM 38.5920 -82.6920 183° South 459 528 36,000  Level FlightAware ADS-B
Sun 03:07:18 PM 38.4880 -82.6990 183° South 460 529 36,000  Level FlightAware ADS-B
Sun 03:07:56 PM 38.4060 -82.7040 183° South 460 529 36,000  Level FlightAware ADS-B
Sun 03:08:23 PM 38.3510 -82.7080 183° South 459 528 36,000  Level FlightAware ADS-B
Sun 03:09:01 PM 38.2670 -82.7130 183° South 459 528 36,000  Level FlightAware ADS-B
Sun 03:09:36 PM 38.1940 -82.7180 183° South 457 526 36,000  Level FlightAware ADS-B
Sun 03:10:09 PM 38.1240 -82.7230 183° South 456 525 36,000  Level FlightAware ADS-B
Sun 03:10:43 PM 38.0520 -82.7270 183° South 454 522 36,000  Level FlightAware ADS-B
Sun 03:10:59 PM 38.0190 -82.7290 183° South 454 522 36,000  Level FlightAware ADS-B
Sun 03:12:03 PM 37.8870 -82.7380 183° South 452 520 36,000  Level FlightAware ADS-B
Sun 03:12:47 PM 37.7930 -82.7440 183° South 450 518 36,000  Level FlightAware ADS-B
Sun 03:13:28 PM 37.7075 -82.7557 186° South 446 513 36,000  Level FlightAware ADS-B
Sun 03:14:18 PM 37.6130 -82.7937 198° South 439 505 36,000  Level FlightAware ADS-B
Sun 03:14:25 PM 37.6005 -82.8014 206° Southwest 424 488 36,000  Level FlightAware ADS-B
Sun 03:14:59 PM 37.5407 -82.8407 208° Southwest 424 488 36,000  Level FlightAware ADS-B
Sun 03:15:32 PM 37.4843 -82.8786 208° Southwest 423 487 36,000  Level FlightAware ADS-B
Sun 03:16:14 PM 37.4126 -82.9262 208° Southwest 423 487 36,000  Level FlightAware ADS-B
Sun 03:16:46 PM 37.3563 -82.9631 208° Southwest 422 486 36,000  Level FlightAware ADS-B
Sun 03:17:17 PM 37.3031 -82.9980 208° Southwest 422 486 36,000  Level FlightAware ADS-B
Sun 03:17:48 PM 37.2498 -83.0327 207° Southwest 423 487 36,000  Level FlightAware ADS-B
Sun 03:18:18 PM 37.1977 -83.0667 207° Southwest 423 487 36,000  Level FlightAware ADS-B
Sun 03:18:49 PM 37.1438 -83.1018 207° Southwest 423 487 36,000  Level FlightAware ADS-B
Sun 03:19:22 PM 37.0854 -83.1399 207° Southwest 425 489 36,000  Level FlightAware ADS-B
Sun 03:19:54 PM 37.0294 -83.1763 207° Southwest 425 489 36,000  Level FlightAware ADS-B
Sun 03:20:25 PM 36.9760 -83.2109 207° Southwest 426 490 36,000  Level FlightAware ADS-B
Sun 03:20:55 PM 36.9227 -83.2455 207° Southwest 426 490 36,000  Level FlightAware ADS-B
Sun 03:21:26 PM 36.8692 -83.2800 207° Southwest 426 490 36,000  Level FlightAware ADS-B
Sun 03:21:56 PM 36.8163 -83.3142 207° Southwest 427 491 36,000  Level FlightAware ADS-B
Sun 03:22:27 PM 36.7622 -83.3491 207° Southwest 428 493 36,000  Level FlightAware ADS-B
Sun 03:22:57 PM 36.7091 -83.3833 207° Southwest 428 493 36,000  Level FlightAware ADS-B
Sun 03:23:29 PM 36.6533 -83.4191 207° Southwest 429 494 36,000  Level FlightAware ADS-B
Sun 03:23:59 PM 36.5998 -83.4534 207° Southwest 430 495 36,000  Level FlightAware ADS-B
Sun 03:24:31 PM 36.5441 -83.4891 207° Southwest 432 497 36,000  Level FlightAware ADS-B
Sun 03:25:01 PM 36.4906 -83.5234 207° Southwest 433 498 36,000  Level FlightAware ADS-B
Sun 03:25:32 PM 36.4351 -83.5589 207° Southwest 433 498 36,000  Level FlightAware ADS-B
Sun 03:26:03 PM 36.3802 -83.5939 207° Southwest 434 499 36,000  Level FlightAware ADS-B
Sun 03:26:33 PM 36.3261 -83.6283 207° Southwest 435 501 36,000  Level FlightAware ADS-B
Sun 03:27:05 PM 36.2693 -83.6644 207° Southwest 435 501 36,000  Level FlightAware ADS-B
Sun 03:27:37 PM 36.2120 -83.7008 207° Southwest 435 501 36,000  Level FlightAware ADS-B
Sun 03:28:09 PM 36.1546 -83.7370 207° Southwest 436 502 36,000  Level FlightAware ADS-B
Sun 03:28:42 PM 36.0948 -83.7749 207° Southwest 437 503 36,000  Level FlightAware ADS-B
Sun 03:29:16 PM 36.0341 -83.8132 207° Southwest 437 503 36,000  Level FlightAware ADS-B
Sun 03:29:47 PM 35.9778 -83.8488 207° Southwest 438 504 36,000  Level FlightAware ADS-B
Sun 03:30:11 PM 35.9344 -83.8758 207° Southwest 439 505 36,000  Level FlightAware ADS-B
Sun 03:30:25 PM 35.9084 -83.8890 202° Southwest 446 513 36,000  Level FlightAware ADS-B
Sun 03:30:45 PM 35.8687 -83.9032 196° South 453 521 36,000  Level FlightAware ADS-B
Sun 03:31:16 PM 35.8044 -83.9199 192° South 456 525 36,000  Level FlightAware ADS-B
Sun 03:31:47 PM 35.7408 -83.9350 191° South 457 526 36,000  Level FlightAware ADS-B
Sun 03:32:17 PM 35.6774 -83.9500 191° South 457 526 36,000  Level FlightAware ADS-B
Sun 03:32:48 PM 35.6135 -83.9653 191° South 457 526 36,000  Level FlightAware ADS-B
Sun 03:33:19 PM 35.5500 -83.9807 191° South 457 526 36,000  Level FlightAware ADS-B
Sun 03:33:56 PM 35.4731 -83.9992 191° South 457 526 36,000  Level FlightAware ADS-B
Sun 03:34:26 PM 35.4098 -84.0146 191° South 457 526 36,000  Level FlightAware ADS-B
Sun 03:34:56 PM 35.3466 -84.0299 191° South 458 527 36,000  Level FlightAware ADS-B
Sun 03:35:27 PM 35.2832 -84.0452 191° South 459 528 36,000  Level FlightAware ADS-B
Sun 03:35:59 PM 35.2174 -84.0610 191° South 459 528 36,000  Level FlightAware ADS-B
Sun 03:36:32 PM 35.1486 -84.0776 191° South 460 529 36,000  Level FlightAware ADS-B
Sun 03:37:02 PM 35.0858 -84.0926 191° South 460 529 36,000  Level FlightAware ADS-B
Sun 03:37:33 PM 35.0212 -84.1081 191° South 459 528 36,000  Level FlightAware ADS-B
Sun 03:38:44 PM 34.8722 -84.1436 191° South 459 528 36,000  Level FlightAware ADS-B
Sun 03:39:15 PM 34.8073 -84.1589 191° South 459 528 36,000  Level FlightAware ADS-B
Sun 03:39:46 PM 34.7425 -84.1743 191° South 459 528 36,000  Level FlightAware ADS-B
Sun 03:40:39 PM 34.6338 -84.2001 191° South 458 527 36,000  Level FlightAware ADS-B
Sun 03:41:09 PM 34.5713 -84.2149 191° South 458 527 36,000  Level FlightAware ADS-B
Sun 03:41:39 PM 34.5085 -84.2297 191° South 458 527 36,000  Level FlightAware ADS-B
Sun 03:42:10 PM 34.4449 -84.2447 191° South 458 527 36,000  Level FlightAware ADS-B
Sun 03:42:41 PM 34.3794 -84.2601 191° South 458 527 36,000  Level FlightAware ADS-B
Sun 03:43:14 PM 34.3120 -84.2760 191° South 458 527 36,000  Level FlightAware ADS-B
Sun 03:44:17 PM 34.1810 -84.3070 191° South 458 527 36,000  Level FlightAware ADS-B
Sun 03:45:03 PM 34.0860 -84.3290 191° South 458 527 36,000  Level FlightAware ADS-B
Sun 03:45:27 PM 34.0360 -84.3410 191° South 458 527 36,000  Level FlightAware ADS-B
Sun 03:46:10 PM 33.9520 -84.3600 191° South 460 529 36,000  Level FlightAware ADS-B
Sun 03:46:54 PM 33.8600 -84.3820 191° South 461 531 36,000  Level FlightAware ADS-B
Sun 03:47:24 PM 33.7920 -84.3970 190° South 462 532 36,000  Level FlightAware ADS-B
Sun 03:48:14 PM 33.6860 -84.4220 191° South 455 524 36,000  Level FlightAware ADS-B
Sun 03:48:41 PM 33.6249 -84.4322 188° South 461 531 36,000  Level FlightAware ADS-B
Sun 03:49:29 PM 33.5260 -84.4340 181° South 479 551 36,000  Level FlightAware ADS-B
Sun 03:50:09 PM 33.4490 -84.4320 179° South 480 552 36,000  Level FlightAware ADS-B
Sun 03:50:47 PM 33.3640 -84.4290 178° South 481 554 36,000  Level FlightAware ADS-B
Sun 03:51:18 PM 33.2910 -84.4280 179° South 481 554 36,000  Level FlightAware ADS-B
Sun 03:51:54 PM 33.2100 -84.4260 179° South 482 555 36,000  Level FlightAware ADS-B
Sun 03:52:23 PM 33.1360 -84.4250 179° South 482 555 36,000  Level FlightAware ADS-B
Sun 03:53:12 PM 33.0360 -84.4230 179° South 483 556 36,000  Level FlightAware ADS-B
Sun 03:53:49 PM 32.9550 -84.4210 179° South 483 556 36,000  Level FlightAware ADS-B
Sun 03:54:19 PM 32.8850 -84.4200 179° South 484 557 36,000  Level FlightAware ADS-B
Sun 03:55:00 PM 32.7970 -84.4180 179° South 485 558 36,000  Level FlightAware ADS-B
Sun 03:55:43 PM 32.7000 -84.4160 179° South 484 557 36,000  Level FlightAware ADS-B
Sun 03:56:13 PM 32.6180 -84.4140 179° South 484 557 36,000  Level FlightAware ADS-B
Sun 03:56:50 PM 32.5340 -84.4130 179° South 484 557 36,000  Level FlightAware ADS-B
Sun 03:57:10 PM 32.4940 -84.4120 179° South 484 557 36,000  Level FlightAware ADS-B
Sun 03:58:00 PM 32.3800 -84.4100 179° South 483 556 36,000  Level FlightAware ADS-B
Sun 03:58:32 PM 32.3070 -84.4080 179° South 483 556 36,000  Level FlightAware ADS-B
Sun 03:59:20 PM 32.2000 -84.4060 179° South 481 554 36,000  Level FlightAware ADS-B
Sun 03:59:54 PM 32.1240 -84.4040 179° South 480 552 36,000  Level FlightAware ADS-B
Sun 04:00:29 PM 32.0470 -84.4030 179° South 479 551 36,000  Level FlightAware ADS-B
Sun 04:01:03 PM 31.9710 -84.4010 179° South 479 551 36,000  Level FlightAware ADS-B
Sun 04:01:36 PM 31.8980 -84.4000 179° South 479 551 36,000  Level FlightAware ADS-B
Sun 04:02:13 PM 31.8200 -84.3980 179° South 479 551 36,000  Level FlightAware ADS-B
Sun 04:02:43 PM 31.7510 -84.3970 179° South 479 551 36,000  Level FlightAware ADS-B
Sun 04:03:24 PM 31.6580 -84.3950 179° South 480 552 36,000  Level FlightAware ADS-B
Sun 04:04:04 PM 31.5700 -84.3940 179° South 480 552 36,000  Level FlightAware ADS-B
Sun 04:04:32 PM 31.5070 -84.3920 178° South 480 552 36,000  Level FlightAware ADS-B
Sun 04:05:07 PM 31.4300 -84.3910 179° South 480 552 36,000  Level FlightAware ADS-B
Sun 04:06:16 PM 31.2770 -84.3610 170° South 494 568 36,000 245 Level FlightAware ADS-B
Sun 04:06:45 PM 31.2180 -84.3280 154° Southeast 491 565 36,400 923 Climbing FlightAware ADS-B
Sun 04:07:21 PM 31.1450 -84.2860 154° Southeast 487 560 37,000 346 Climbing FlightAware ADS-B
Sun 04:08:29 PM 31.0070 -84.2060 154° Southeast 486 559 37,000  Level FlightAware ADS-B
Sun 04:08:52 PM 30.9676 -84.1834 154° Southeast 484 557 37,000  Level FlightAware ADS-B
Sun 04:09:22 PM 30.9014 -84.1457 154° Southeast 483 556 37,000  Level FlightAware ADS-B
Sun 04:09:53 PM 30.8393 -84.1105 154° Southeast 481 554 37,000  Level FlightAware ADS-B
Sun 04:10:32 PM 30.7635 -84.0676 154° Southeast 478 550 37,000  Level FlightAware ADS-B
Sun 04:11:02 PM 30.7123 -84.0386 154° Southeast 477 549 37,000  Level FlightAware ADS-B
Sun 04:11:42 PM 30.6215 -83.9872 154° Southeast 476 548 37,000  Level FlightAware ADS-B
Sun 04:12:12 PM 30.5627 -83.9541 154° Southeast 475 547 37,000  Level FlightAware ADS-B (KONZ)
Sun 04:12:51 PM 30.4887 -83.9124 154° Southeast 476 548 37,000  Level FlightAware ADS-B
Sun 04:13:21 PM 30.4284 -83.8785 154° Southeast 476 548 37,000  Level FlightAware ADS-B
Sun 04:13:55 PM 30.3647 -83.8427 154° Southeast 478 550 37,000  Level FlightAware ADS-B (KONZ)
Sun 04:14:32 PM 30.2844 -83.7975 154° Southeast 479 551 37,000  Level FlightAware ADS-B
Sun 04:15:05 PM 30.2426 -83.7741 154° Southeast 480 552 37,000  Level FlightAware ADS-B (KONZ)
Sun 04:15:56 PM 30.2426 -83.7741 154° Southeast 481 554 37,000  Level FlightAware ADS-B (KONZ)
Sun 04:16:36 PM 30.0360 -83.6590 154° Southeast 482 555 37,000  Level FlightAware ADS-B
Sun 04:17:15 PM 29.9570 -83.6150 154° Southeast 482 555 37,000  Level FlightAware ADS-B
Sun 04:17:47 PM 29.8930 -83.5790 154° Southeast 482 555 37,000  Level FlightAware ADS-B
Sun 04:18:24 PM 29.8200 -83.5380 154° Southeast 483 556 37,000  Level FlightAware ADS-B
Sun 04:18:55 PM 29.7570 -83.5040 155° Southeast 482 555 37,000  Level FlightAware ADS-B
Sun 04:19:29 PM 29.6880 -83.4650 154° Southeast 482 555 37,000  Level FlightAware ADS-B
Sun 04:19:59 PM 29.6280 -83.4320 154° Southeast 482 555 37,000  Level FlightAware ADS-B
Sun 04:20:34 PM 29.5570 -83.3930 154° Southeast 480 552 37,000  Level FlightAware ADS-B
Sun 04:21:04 PM 29.4980 -83.3610 155° Southeast 480 552 37,000  Level FlightAware ADS-B
Sun 04:21:46 PM 29.4150 -83.3150 154° Southeast 478 550 37,000  Level FlightAware ADS-B
Sun 04:22:21 PM 29.3450 -83.2760 154° Southeast 476 548 37,000  Level FlightAware ADS-B
Sun 04:23:03 PM 29.2600 -83.2300 155° Southeast 475 547 37,000  Level FlightAware ADS-B
Sun 04:24:02 PM 29.1440 -83.1660 154° Southeast 474 545 37,000  Level FlightAware ADS-B
Sun 04:24:37 PM 29.0740 -83.1280 155° Southeast 472 543 37,000  Level FlightAware ADS-B
Sun 04:25:09 PM 29.0100 -83.0930 154° Southeast 470 541 37,000  Level FlightAware ADS-B
Sun 04:25:48 PM 28.9340 -83.0520 155° Southeast 468 539 37,000  Level FlightAware ADS-B
Sun 04:26:51 PM 28.8120 -82.9850 154° Southeast 464 534 37,000  Level FlightAware ADS-B
Sun 04:27:36 PM 28.7240 -82.9380 155° Southeast 462 532 37,000  Level FlightAware ADS-B
Sun 04:28:26 PM 28.6300 -82.8870 155° Southeast 460 529 37,000  Level FlightAware ADS-B
Sun 04:29:06 PM 28.5520 -82.8450 155° Southeast 460 529 37,000  Level FlightAware ADS-B
Sun 04:30:02 PM 28.4430 -82.7860 155° Southeast 460 529 37,000  Level FlightAware ADS-B
Sun 04:30:49 PM 28.3530 -82.7370 154° Southeast 457 526 37,000  Level FlightAware ADS-B
Sun 04:31:22 PM 28.2890 -82.7030 155° Southeast 454 522 37,000  Level FlightAware ADS-B
Sun 04:31:58 PM 28.2210 -82.6670 155° Southeast 452 520 37,000  Level FlightAware ADS-B
Sun 04:32:37 PM 28.1470 -82.6270 155° Southeast 451 519 37,000  Level FlightAware ADS-B
Sun 04:33:11 PM 28.0850 -82.5940 155° Southeast 449 517 37,000  Level FlightAware ADS-B
Sun 04:34:16 PM 27.9640 -82.5290 155° Southeast 447 514 37,000  Level FlightAware ADS-B
Sun 04:34:49 PM 27.9030 -82.4970 155° Southeast 445 512 37,000  Level FlightAware ADS-B
Sun 04:35:25 PM 27.8340 -82.4600 155° Southeast 445 512 37,000  Level FlightAware ADS-B
Sun 04:35:59 PM 27.7720 -82.4270 155° Southeast 443 510 37,000  Level FlightAware ADS-B
Sun 04:36:27 PM 27.7170 -82.3980 155° Southeast 443 510 37,000  Level FlightAware ADS-B
Sun 04:36:58 PM 27.6610 -82.3680 155° Southeast 442 509 37,000  Level FlightAware ADS-B
Sun 04:37:24 PM 27.6110 -82.3420 155° Southeast 443 510 37,000  Level FlightAware ADS-B
Sun 04:38:05 PM 27.5350 -82.3010 154° Southeast 442 509 37,000  Level FlightAware ADS-B
Sun 04:39:00 PM 27.4330 -82.2480 155° Southeast 441 507 37,000  Level FlightAware ADS-B
Sun 04:39:24 PM 27.3890 -82.2250 155° Southeast 442 509 37,000  Level FlightAware ADS-B
Sun 04:40:09 PM 27.3050 -82.1800 155° Southeast 441 507 37,000  Level FlightAware ADS-B
Sun 04:41:07 PM 27.1930 -82.1450 164° South 438 504 37,000  Level FlightAware ADS-B
Sun 04:41:36 PM 27.1350 -82.1510 185° South 437 503 37,000  Level FlightAware ADS-B
Sun 04:42:10 PM 27.0670 -82.1590 186° South 437 503 37,000  Level FlightAware ADS-B
Sun 04:43:18 PM 26.9330 -82.1760 186° South 436 502 37,000  Level FlightAware ADS-B
Sun 04:44:03 PM 26.8400 -82.1870 186° South 435 501 37,000  Level FlightAware ADS-B
Sun 04:44:44 PM 26.7570 -82.1970 186° South 434 499 37,000  Level FlightAware ADS-B
Sun 04:45:21 PM 26.6830 -82.2060 186° South 434 499 37,000  Level FlightAware ADS-B
Sun 04:45:58 PM 26.6090 -82.2140 186° South 434 499 37,000  Level FlightAware ADS-B
Sun 04:46:34 PM 26.5360 -82.2230 186° South 435 501 37,000  Level FlightAware ADS-B
Sun 04:47:38 PM 26.4080 -82.2380 186° South 438 504 37,000  Level FlightAware ADS-B
Sun 04:48:34 PM 26.2930 -82.2520 186° South 442 509 37,000  Level FlightAware ADS-B
Sun 04:49:26 PM 26.1870 -82.2650 186° South 444 511 37,000  Level FlightAware ADS-B
Sun 04:49:54 PM 26.1300 -82.2710 185° South 446 513 37,000  Level FlightAware ADS-B
Sun 04:50:23 PM 26.0710 -82.2780 186° South 448 516 37,000  Level FlightAware ADS-B
Sun 04:51:21 PM 25.9500 -82.2930 186° South 452 520 37,000  Level FlightAware ADS-B
Sun 04:52:15 PM 25.8370 -82.3060 186° South 455 524 37,000  Level FlightAware ADS-B
Sun 04:52:50 PM 25.7650 -82.3140 186° South 456 525 37,000  Level FlightAware ADS-B
Sun 04:53:22 PM 25.6970 -82.3220 186° South 456 525 37,000  Level FlightAware ADS-B
Sun 04:53:57 PM 25.6230 -82.3310 186° South 457 526 37,000 -66 Level FlightAware ADS-B
Sun 04:54:53 PM 25.5030 -82.3450 186° South 452 520 36,900 -366 Descending FlightAware ADS-B
Sun 04:55:19 PM 25.4510 -82.3510 186° South 448 516 36,500 -1,159 Descending FlightAware ADS-B
Sun 04:56:21 PM 25.3260 -82.3660 186° South 441 507 35,200 -1,176 Descending FlightAware ADS-B
Sun 04:57:01 PM 25.2440 -82.3750 186° South 432 497 34,500 -1,068 Descending FlightAware ADS-B
Sun 04:57:34 PM 25.1790 -82.3830 186° South 425 489 33,900 -1,091 Descending FlightAware ADS-B
Sun 04:58:07 PM 25.1130 -82.3910 186° South 419 482 33,300 -1,023 Descending FlightAware ADS-B
Sun 04:59:02 PM 25.0110 -82.4020 186° South 408 470 32,400 -977 Descending FlightAware ADS-B
Sun 04:59:33 PM 24.9510 -82.4090 186° South 400 460 31,900 -1,041 Descending FlightAware ADS-B
Sun 05:00:40 PM 24.8280 -82.4230 186° South 393 452 30,700 -1,160 Descending FlightAware ADS-B
Sun 05:01:32 PM 24.7360 -82.4340 186° South 395 455 29,600 -846 Descending FlightAware ADS-B
Sun 05:01:58 PM 24.6960 -82.4390 186° South 395 455 29,600 -1,238 Level FlightAware ADS-B
Sun 05:02:35 PM 24.6220 -82.4470 186° South 396 456 28,300 -1,416 Descending FlightAware ADS-B
Sun 05:03:27 PM 24.5280 -82.4580 186° South 391 450 27,500 -809 Descending FlightAware ADS-B
Sun 05:04:04 PM 24.4590 -82.4660 186° South 381 438 27,100 -417 Descending FlightAware ADS-B
Sun 05:04:39 PM 24.4070 -82.4710 185° South 380 437 27,000 -102 Descending FlightAware ADS-B
Sun 05:05:03 PM 24.3720 -82.4750 186° South 380 437 27,000  Level FlightAware ADS-B
Sun 05:06:13 PM 24.2670 -82.4850 185° South 380 437 27,000  Level FlightAware ADS-B
Sun 05:06:37 PM 24.2320 -82.4880 184° South 380 437 27,000  Level FlightAware ADS-B
Sun 05:07:36 PM 24.1440 -82.4970 185° South 380 437 27,000  Level FlightAware ADS-B
Sun 05:08:12 PM 24.0900 -82.5020 185° South 380 437 27,000  Level FlightAware ADS-B
Sun 05:14:00 PM 23.3603 -82.4333 180° South  Level FlightAware Approximate
Sun 05:15:00 PM 23.2339 -82.4191 173° South  Level FlightAware Approximate
Sun 05:16:00 PM 23.1073 -82.4115 170° South  Level FlightAware Approximate
Sun 05:17:00 PM 22.9891 -82.4091 180° South  Level Estimated
Sun 05:18:00 PM 22.9891 -82.4091 180° South  Level Estimated
Sun 05:19:00 PM 22.9891 -82.4091 180° South  Level Estimated
Sun 05:20:00 PM 22.9891 -82.4091 180° South  Level Estimated
Sun 05:21:00 PM 22.9891 -82.4091 180° South  Level Estimated
Sun 05:22:00 PM 22.9891 -82.4091 180° South  Level Estimated
Sun 05:23:00 PM 22.9891 -82.4091 180° South  Level Estimated
Sun 05:24:00 PM 22.9891 -82.4091 180° South  Level Estimated
Sun 05:25:00 PM 22.9891 -82.4091 180° South  Level Estimated
Sun 05:26:00 PM 22.9891 -82.4091 180° South  Level Estimated
Sun 05:27:00 PM 22.9891 -82.4091 180° South  Level Estimated
Sun 05:28:00 PM 22.9891 -82.4091 180° South  Level Estimated
Sun 05:29:00 PM 22.9891 -82.4091 180° South  Level Estimated
Sun 05:30:00 PM 22.9891 -82.4091 180° South  Level Estimated
Sun 05:31:00 PM 22.9891 -82.4091 180° South  Level Estimated
Sun 05:32:00 PM 22.9891 -82.4091 180° South  Level Estimated
Sun 05:33:00 PM 22.9891 -82.4091 180° South  Level Estimated
Sun 05:34:00 PM 22.9891 -82.4091 180° South  Level Estimated
Sun 05:35:00 PM 22.9891 -82.4091 180° South  Level Estimated
Sun 05:36:00 PM 22.9891 -82.4091 180° South  Level Estimated
Sun 05:37:00 PM 22.9891 -82.4091 180° South  Level Estimated
Sun 05:38:00 PM 22.9891 -82.4091 180° South  Level Estimated
Sun 05:39:00 PM 22.9891 -82.4091 180° South  Level Estimated

Login

Don't have an account? Register now (free) for customized features, flight alerts, and more!